KLM654 PANC-EHAM
Flight info
| Callsign | KLM654 |
|---|---|
| Flight time | 8h 2m |
| Altitude | 37000 |
| Route | BGQ J115 FAI J120 FYU J160 ADREW DCT 74N132W 79N117W/N0490F390 82N085W 81N045W DCT 7720N DCT 72N008W/M084F410 67N001W DCT BURIX DCT ALOTI DCT ELSAN DCT LARDI L74 TOPPA |
| Aircraft | B772/H-SDE2E3FGHIJ5LORVWXY/LB1D1 |
Departure
| Time | 2026-05-05 08:01 |
|---|---|
| Airport | Ted Stevens Anchorage International Airport (PANC) |
Arrival
| Time | 2026-05-05 16:04 |
|---|---|
| Airport | Amsterdam Airport Schiphol (EHAM) |
| Time | Latitude | Longitude | Altitude | Speed | Heading |
|---|---|---|---|---|---|
| 2026-05-05 07:24 | 61.17749 | -149.98969 | 110 ft | 0 kts | 23° |
| 2026-05-05 07:51 | 61.17745 | -149.98973 | 108 ft | 3 kts | 23° |
| 2026-05-05 07:51 | 61.17725 | -149.98990 | 108 ft | 3 kts | 23° |
| 2026-05-05 07:52 | 61.17706 | -149.99006 | 107 ft | 3 kts | 22° |
| 2026-05-05 07:52 | 61.17687 | -149.99023 | 106 ft | 3 kts | 22° |
| 2026-05-05 07:52 | 61.17668 | -149.99038 | 106 ft | 3 kts | 21° |
| 2026-05-05 07:52 | 61.17649 | -149.99052 | 107 ft | 3 kts | 17° |
| 2026-05-05 07:53 | 61.17632 | -149.99062 | 107 ft | 2 kts | 7° |
| 2026-05-05 07:53 | 61.17617 | -149.99063 | 107 ft | 2 kts | 350° |
| 2026-05-05 07:53 | 61.17608 | -149.99060 | 107 ft | 1 kts | 342° |
| 2026-05-05 07:53 | 61.17600 | -149.99054 | 107 ft | 1 kts | 340° |
| 2026-05-05 07:54 | 61.17599 | -149.99053 | 107 ft | 0 kts | 340° |
| 2026-05-05 07:56 | 61.17600 | -149.99054 | 107 ft | 2 kts | 340° |
| 2026-05-05 07:56 | 61.17657 | -149.99096 | 108 ft | 10 kts | 340° |
| 2026-05-05 07:56 | 61.17722 | -149.99155 | 109 ft | 10 kts | 319° |
| 2026-05-05 07:56 | 61.17727 | -149.99295 | 110 ft | 10 kts | 251° |
| 2026-05-05 07:57 | 61.17696 | -149.99426 | 111 ft | 10 kts | 221° |
| 2026-05-05 07:57 | 61.17627 | -149.99418 | 111 ft | 11 kts | 158° |
| 2026-05-05 07:57 | 61.17554 | -149.99360 | 112 ft | 11 kts | 160° |
| 2026-05-05 07:57 | 61.17482 | -149.99305 | 110 ft | 11 kts | 160° |
| 2026-05-05 07:58 | 61.17409 | -149.99250 | 112 ft | 11 kts | 160° |
| 2026-05-05 07:58 | 61.17340 | -149.99205 | 115 ft | 9 kts | 176° |
| 2026-05-05 07:58 | 61.17295 | -149.99276 | 116 ft | 9 kts | 248° |
| 2026-05-05 07:58 | 61.17290 | -149.99402 | 121 ft | 9 kts | 268° |
| 2026-05-05 07:59 | 61.17289 | -149.99528 | 127 ft | 9 kts | 270° |
| 2026-05-05 07:59 | 61.17289 | -149.99654 | 128 ft | 9 kts | 270° |
| 2026-05-05 07:59 | 61.17289 | -149.99779 | 130 ft | 9 kts | 269° |
| 2026-05-05 07:59 | 61.17291 | -149.99905 | 126 ft | 9 kts | 285° |
| 2026-05-05 08:00 | 61.17339 | -149.99975 | 125 ft | 9 kts | 344° |
| 2026-05-05 08:00 | 61.17342 | -149.99977 | 127 ft | 0 kts | 344° |
| 2026-05-05 08:01 | 61.17488 | -150.00059 | 127 ft | 54 kts | 345° |
| 2026-05-05 08:01 | 61.18096 | -150.00400 | 127 ft | 125 kts | 345° |
| 2026-05-05 08:01 | 61.19119 | -150.00977 | 240 ft | 170 kts | 345° |
| 2026-05-05 08:01 | 61.20250 | -150.01640 | 980 ft | 168 kts | 340° |
| 2026-05-05 08:02 | 61.21256 | -150.03061 | 1535 ft | 185 kts | 320° |
| 2026-05-05 08:02 | 61.22228 | -150.04886 | 2211 ft | 191 kts | 318° |
| 2026-05-05 08:02 | 61.23256 | -150.06844 | 2542 ft | 212 kts | 323° |
| 2026-05-05 08:02 | 61.24659 | -150.07927 | 2697 ft | 226 kts | 4° |
| 2026-05-05 08:03 | 61.26238 | -150.07371 | 2985 ft | 237 kts | 16° |
| 2026-05-05 08:03 | 61.27929 | -150.06617 | 3298 ft | 256 kts | 14° |
| 2026-05-05 08:03 | 61.29711 | -150.05894 | 3881 ft | 265 kts | 14° |
| 2026-05-05 08:03 | 61.31545 | -150.05195 | 4533 ft | 270 kts | 14° |
| 2026-05-05 08:04 | 61.33413 | -150.04518 | 5179 ft | 275 kts | 14° |
| 2026-05-05 08:04 | 61.35314 | -150.03853 | 5818 ft | 280 kts | 14° |
| 2026-05-05 08:04 | 61.37256 | -150.03190 | 6421 ft | 285 kts | 14° |
| 2026-05-05 08:04 | 61.39226 | -150.02528 | 7008 ft | 289 kts | 14° |
| 2026-05-05 08:05 | 61.41225 | -150.01863 | 7587 ft | 293 kts | 14° |
| 2026-05-05 08:05 | 61.43256 | -150.01193 | 8154 ft | 298 kts | 14° |
| 2026-05-05 08:05 | 61.45319 | -150.00514 | 8692 ft | 303 kts | 13° |
| 2026-05-05 08:05 | 61.47410 | -149.99827 | 9282 ft | 306 kts | 14° |
| 2026-05-05 08:06 | 61.49525 | -149.99133 | 9797 ft | 310 kts | 13° |
| 2026-05-05 08:06 | 61.51638 | -149.98436 | 10260 ft | 316 kts | 13° |
| 2026-05-05 08:06 | 61.53873 | -149.97692 | 10413 ft | 334 kts | 13° |
| 2026-05-05 08:06 | 61.56236 | -149.96904 | 10575 ft | 353 kts | 13° |
| 2026-05-05 08:07 | 61.58708 | -149.95857 | 10792 ft | 371 kts | 17° |
| 2026-05-05 08:07 | 61.61243 | -149.94533 | 11323 ft | 380 kts | 18° |
| 2026-05-05 08:07 | 61.63825 | -149.93104 | 12052 ft | 386 kts | 18° |
| 2026-05-05 08:07 | 61.66437 | -149.91641 | 12886 ft | 391 kts | 17° |
| 2026-05-05 08:08 | 61.69083 | -149.90164 | 13687 ft | 395 kts | 17° |
| 2026-05-05 08:08 | 61.71753 | -149.88683 | 14414 ft | 399 kts | 17° |
| 2026-05-05 08:08 | 61.74456 | -149.87194 | 15139 ft | 403 kts | 17° |
| 2026-05-05 08:08 | 61.76291 | -149.86185 | 15631 ft | 405 kts | 17° |
| 2026-05-05 08:09 | 61.78992 | -149.84703 | 16331 ft | 408 kts | 17° |
| 2026-05-05 08:09 | 61.81757 | -149.83186 | 17022 ft | 412 kts | 17° |
| 2026-05-05 08:09 | 61.84543 | -149.81658 | 17683 ft | 416 kts | 17° |
| 2026-05-05 08:09 | 61.87358 | -149.80111 | 18305 ft | 419 kts | 17° |
| 2026-05-05 08:10 | 61.90186 | -149.78555 | 18889 ft | 422 kts | 17° |
| 2026-05-05 08:10 | 61.93036 | -149.76983 | 19439 ft | 425 kts | 17° |
| 2026-05-05 08:10 | 61.95914 | -149.75392 | 19974 ft | 428 kts | 17° |
| 2026-05-05 08:10 | 61.98806 | -149.73789 | 20500 ft | 432 kts | 17° |
| 2026-05-05 08:11 | 62.01729 | -149.72167 | 21014 ft | 435 kts | 17° |
| 2026-05-05 08:11 | 62.04667 | -149.70533 | 21533 ft | 438 kts | 17° |
| 2026-05-05 08:11 | 62.07628 | -149.68883 | 22045 ft | 442 kts | 17° |
| 2026-05-05 08:11 | 62.10617 | -149.67215 | 22543 ft | 446 kts | 17° |
| 2026-05-05 08:12 | 62.13624 | -149.65532 | 23018 ft | 449 kts | 17° |
| 2026-05-05 08:12 | 62.16661 | -149.63829 | 23480 ft | 452 kts | 18° |
| 2026-05-05 08:12 | 62.19724 | -149.62107 | 23795 ft | 458 kts | 18° |
| 2026-05-05 08:12 | 62.22823 | -149.60360 | 24100 ft | 464 kts | 18° |
| 2026-05-05 08:13 | 62.25967 | -149.58584 | 24419 ft | 469 kts | 18° |
| 2026-05-05 08:13 | 62.29134 | -149.56792 | 24754 ft | 474 kts | 18° |
| 2026-05-05 08:13 | 62.32338 | -149.54976 | 25087 ft | 478 kts | 18° |
| 2026-05-05 08:13 | 62.35570 | -149.53141 | 25417 ft | 483 kts | 18° |
| 2026-05-05 08:14 | 62.38785 | -149.51313 | 25756 ft | 487 kts | 18° |
| 2026-05-05 08:14 | 62.42077 | -149.49435 | 26053 ft | 492 kts | 18° |
| 2026-05-05 08:14 | 62.45403 | -149.47532 | 26331 ft | 497 kts | 18° |
| 2026-05-05 08:14 | 62.48764 | -149.45605 | 26682 ft | 501 kts | 18° |
| 2026-05-05 08:15 | 62.52146 | -149.43664 | 27035 ft | 505 kts | 18° |
| 2026-05-05 08:15 | 62.55562 | -149.41696 | 27296 ft | 510 kts | 18° |
| 2026-05-05 08:15 | 62.59006 | -149.39708 | 27574 ft | 515 kts | 19° |
| 2026-05-05 08:15 | 62.62491 | -149.37692 | 27878 ft | 520 kts | 19° |
| 2026-05-05 08:16 | 62.65997 | -149.35659 | 28196 ft | 524 kts | 19° |
| 2026-05-05 08:16 | 62.69532 | -149.33604 | 28509 ft | 528 kts | 19° |
| 2026-05-05 08:16 | 62.73091 | -149.31530 | 28797 ft | 532 kts | 19° |
| 2026-05-05 08:16 | 62.76680 | -149.29432 | 29074 ft | 536 kts | 19° |
| 2026-05-05 08:17 | 62.80298 | -149.27313 | 29315 ft | 540 kts | 19° |
| 2026-05-05 08:17 | 62.83940 | -149.25174 | 29585 ft | 544 kts | 19° |
| 2026-05-05 08:17 | 62.87607 | -149.23016 | 29842 ft | 548 kts | 19° |
| 2026-05-05 08:17 | 62.91302 | -149.20837 | 30043 ft | 551 kts | 18° |
| 2026-05-05 08:18 | 62.95007 | -149.18645 | 30340 ft | 552 kts | 18° |
| 2026-05-05 08:18 | 62.98717 | -149.16442 | 30621 ft | 554 kts | 18° |
| 2026-05-05 08:18 | 63.02449 | -149.14226 | 30852 ft | 555 kts | 18° |
| 2026-05-05 08:18 | 63.06178 | -149.12004 | 31140 ft | 555 kts | 18° |
| 2026-05-05 08:19 | 63.09896 | -149.09781 | 31517 ft | 553 kts | 18° |
| 2026-05-05 08:19 | 63.13602 | -149.07558 | 31917 ft | 551 kts | 17° |
| 2026-05-05 08:19 | 63.17298 | -149.05334 | 32345 ft | 549 kts | 17° |
| 2026-05-05 08:19 | 63.20971 | -149.03117 | 32759 ft | 546 kts | 17° |
| 2026-05-05 08:20 | 63.24639 | -149.00899 | 33147 ft | 545 kts | 17° |
| 2026-05-05 08:20 | 63.28289 | -148.98688 | 33544 ft | 543 kts | 17° |
| 2026-05-05 08:20 | 63.31929 | -148.96478 | 33883 ft | 542 kts | 16° |
| 2026-05-05 08:20 | 63.35555 | -148.94270 | 34220 ft | 539 kts | 16° |
| 2026-05-05 08:21 | 63.39177 | -148.92056 | 34524 ft | 538 kts | 16° |
| 2026-05-05 08:21 | 63.42775 | -148.89850 | 34833 ft | 536 kts | 16° |
| 2026-05-05 08:21 | 63.46373 | -148.87637 | 35141 ft | 535 kts | 16° |
| 2026-05-05 08:21 | 63.49954 | -148.85431 | 35457 ft | 533 kts | 16° |
| 2026-05-05 08:22 | 63.53527 | -148.83223 | 35777 ft | 532 kts | 16° |
| 2026-05-05 08:22 | 63.57088 | -148.81017 | 36057 ft | 530 kts | 16° |
| 2026-05-05 08:22 | 63.60594 | -148.78840 | 36314 ft | 530 kts | 16° |
| 2026-05-05 08:22 | 63.64143 | -148.76632 | 36561 ft | 529 kts | 16° |
| 2026-05-05 08:23 | 63.71269 | -148.72178 | 36695 ft | 534 kts | 16° |
| 2026-05-05 08:23 | 63.78435 | -148.67675 | 36696 ft | 533 kts | 16° |
| 2026-05-05 08:24 | 63.85536 | -148.63192 | 36686 ft | 528 kts | 16° |
| 2026-05-05 08:24 | 63.92617 | -148.58695 | 36697 ft | 528 kts | 16° |
| 2026-05-05 08:25 | 63.99692 | -148.54179 | 36704 ft | 528 kts | 16° |
| 2026-05-05 08:25 | 64.06772 | -148.49636 | 36690 ft | 529 kts | 17° |
| 2026-05-05 08:26 | 64.13874 | -148.45056 | 36693 ft | 531 kts | 16° |
| 2026-05-05 08:26 | 64.20993 | -148.40440 | 36685 ft | 533 kts | 16° |
| 2026-05-05 08:27 | 64.28135 | -148.35783 | 36680 ft | 534 kts | 16° |
| 2026-05-05 08:27 | 64.35288 | -148.31096 | 36681 ft | 535 kts | 16° |
| 2026-05-05 08:28 | 64.42447 | -148.26378 | 36673 ft | 535 kts | 16° |
| 2026-05-05 08:28 | 64.49609 | -148.21633 | 36671 ft | 535 kts | 16° |
| 2026-05-05 08:29 | 64.56718 | -148.16896 | 36669 ft | 534 kts | 16° |
| 2026-05-05 08:30 | 64.67419 | -148.09717 | 36665 ft | 533 kts | 16° |
| 2026-05-05 08:30 | 64.74533 | -148.04914 | 36664 ft | 531 kts | 16° |
| 2026-05-05 08:31 | 64.81445 | -147.98950 | 36663 ft | 529 kts | 26° |
| 2026-05-05 08:31 | 64.87829 | -147.90431 | 36663 ft | 527 kts | 33° |
| 2026-05-05 08:32 | 64.94052 | -147.81284 | 36664 ft | 527 kts | 33° |
| 2026-05-05 08:32 | 65.00280 | -147.72134 | 36658 ft | 528 kts | 33° |
| 2026-05-05 08:33 | 65.06537 | -147.63021 | 36660 ft | 529 kts | 33° |
| 2026-05-05 08:33 | 65.12810 | -147.53887 | 36674 ft | 530 kts | 33° |
| 2026-05-05 08:34 | 65.19094 | -147.44687 | 36691 ft | 531 kts | 33° |
| 2026-05-05 08:34 | 65.25378 | -147.35424 | 36684 ft | 531 kts | 33° |
| 2026-05-05 08:35 | 65.31658 | -147.26109 | 36702 ft | 532 kts | 33° |
| 2026-05-05 08:35 | 65.37944 | -147.16734 | 36695 ft | 532 kts | 33° |
| 2026-05-05 08:36 | 65.44222 | -147.07317 | 36709 ft | 532 kts | 33° |
| 2026-05-05 08:36 | 65.50491 | -146.97859 | 36726 ft | 532 kts | 34° |
| 2026-05-05 08:37 | 65.56710 | -146.88422 | 36718 ft | 532 kts | 34° |
| 2026-05-05 08:37 | 65.63007 | -146.78813 | 36715 ft | 531 kts | 34° |
| 2026-05-05 08:38 | 65.69252 | -146.69226 | 36721 ft | 531 kts | 34° |
| 2026-05-05 08:38 | 65.75446 | -146.59663 | 36732 ft | 531 kts | 34° |
| 2026-05-05 08:39 | 65.81673 | -146.49994 | 36732 ft | 531 kts | 34° |
| 2026-05-05 08:39 | 65.87901 | -146.40267 | 36734 ft | 531 kts | 34° |
| 2026-05-05 08:40 | 65.94121 | -146.30495 | 36735 ft | 531 kts | 34° |
| 2026-05-05 08:40 | 66.00335 | -146.20674 | 36738 ft | 532 kts | 34° |
| 2026-05-05 08:41 | 66.06551 | -146.10793 | 36739 ft | 532 kts | 34° |
| 2026-05-05 08:41 | 66.12757 | -146.00870 | 36741 ft | 532 kts | 34° |
| 2026-05-05 08:42 | 66.18969 | -145.90877 | 36745 ft | 533 kts | 34° |
| 2026-05-05 08:42 | 66.25133 | -145.80903 | 36753 ft | 533 kts | 34° |
| 2026-05-05 08:43 | 66.31338 | -145.70802 | 36750 ft | 533 kts | 34° |
| 2026-05-05 08:43 | 66.37539 | -145.60646 | 36748 ft | 534 kts | 34° |
| 2026-05-05 08:44 | 66.43737 | -145.50436 | 36747 ft | 534 kts | 34° |
| 2026-05-05 08:44 | 66.49929 | -145.40170 | 36741 ft | 534 kts | 34° |
| 2026-05-05 08:45 | 66.56116 | -145.29858 | 36740 ft | 534 kts | 34° |
| 2026-05-05 08:45 | 66.62439 | -145.20041 | 36733 ft | 535 kts | 31° |
| 2026-05-05 08:46 | 66.68907 | -145.10779 | 36744 ft | 535 kts | 30° |
| 2026-05-05 08:46 | 66.75385 | -145.01504 | 36761 ft | 535 kts | 30° |
| 2026-05-05 08:47 | 66.81833 | -144.92083 | 36776 ft | 535 kts | 30° |
| 2026-05-05 08:47 | 66.88262 | -144.82556 | 36790 ft | 535 kts | 31° |
| 2026-05-05 08:48 | 66.94682 | -144.72972 | 36795 ft | 535 kts | 31° |
| 2026-05-05 08:48 | 67.01105 | -144.63334 | 36799 ft | 535 kts | 31° |
| 2026-05-05 08:49 | 67.07518 | -144.53658 | 36804 ft | 535 kts | 31° |
| 2026-05-05 08:49 | 67.13926 | -144.43931 | 36808 ft | 535 kts | 31° |
| 2026-05-05 08:50 | 67.20327 | -144.34154 | 36812 ft | 535 kts | 31° |
| 2026-05-05 08:50 | 67.26724 | -144.24320 | 36816 ft | 535 kts | 31° |
| 2026-05-05 08:51 | 67.33110 | -144.14440 | 36821 ft | 535 kts | 31° |
| 2026-05-05 08:51 | 67.39487 | -144.04514 | 36829 ft | 535 kts | 31° |
| 2026-05-05 08:52 | 67.45862 | -143.94527 | 36836 ft | 535 kts | 31° |
| 2026-05-05 08:52 | 67.52184 | -143.84561 | 36844 ft | 535 kts | 31° |
| 2026-05-05 08:53 | 67.58546 | -143.74468 | 36847 ft | 534 kts | 31° |
| 2026-05-05 08:53 | 67.64893 | -143.64335 | 36854 ft | 534 kts | 31° |
| 2026-05-05 08:54 | 67.71230 | -143.54152 | 36862 ft | 534 kts | 31° |
| 2026-05-05 08:54 | 67.77558 | -143.43919 | 36864 ft | 533 kts | 31° |
| 2026-05-05 08:55 | 67.83867 | -143.33651 | 36869 ft | 532 kts | 31° |
| 2026-05-05 08:55 | 67.90171 | -143.23325 | 36873 ft | 532 kts | 31° |
| 2026-05-05 08:56 | 67.96459 | -143.12959 | 36878 ft | 531 kts | 31° |
| 2026-05-05 08:56 | 68.02731 | -143.02551 | 36879 ft | 531 kts | 31° |
| 2026-05-05 08:57 | 68.08997 | -142.92087 | 36884 ft | 531 kts | 31° |
| 2026-05-05 08:57 | 68.15255 | -142.81566 | 36891 ft | 531 kts | 32° |
| 2026-05-05 08:58 | 68.21505 | -142.70991 | 36896 ft | 531 kts | 32° |
| 2026-05-05 08:58 | 68.27747 | -142.60361 | 36898 ft | 530 kts | 32° |
| 2026-05-05 08:59 | 68.32922 | -142.51495 | 36902 ft | 530 kts | 32° |
| 2026-05-05 08:59 | 68.39145 | -142.40769 | 36913 ft | 530 kts | 32° |
| 2026-05-05 09:00 | 68.45362 | -142.29981 | 36920 ft | 530 kts | 32° |
| 2026-05-05 09:00 | 68.51582 | -142.19118 | 36926 ft | 531 kts | 32° |
| 2026-05-05 09:01 | 68.57792 | -142.08199 | 36933 ft | 531 kts | 32° |
| 2026-05-05 09:01 | 68.64005 | -141.97202 | 36937 ft | 532 kts | 32° |
| 2026-05-05 09:02 | 68.70223 | -141.86122 | 36937 ft | 533 kts | 32° |
| 2026-05-05 09:02 | 68.76437 | -141.74975 | 36936 ft | 533 kts | 32° |
| 2026-05-05 09:03 | 68.82650 | -141.63754 | 36946 ft | 534 kts | 32° |
| 2026-05-05 09:03 | 68.88865 | -141.52453 | 36952 ft | 535 kts | 32° |
| 2026-05-05 09:04 | 68.95075 | -141.41080 | 36953 ft | 535 kts | 32° |
| 2026-05-05 09:04 | 69.01283 | -141.29636 | 36953 ft | 535 kts | 32° |
| 2026-05-05 09:05 | 69.07482 | -141.18127 | 36961 ft | 534 kts | 32° |
| 2026-05-05 09:05 | 69.13666 | -141.06574 | 36961 ft | 534 kts | 32° |
| 2026-05-05 09:06 | 69.19958 | -140.95817 | 36949 ft | 532 kts | 25° |
| 2026-05-05 09:06 | 69.26619 | -140.86491 | 36962 ft | 530 kts | 24° |
| 2026-05-05 09:07 | 69.33257 | -140.77424 | 36956 ft | 530 kts | 24° |
| 2026-05-05 09:07 | 69.39870 | -140.68198 | 36957 ft | 530 kts | 24° |
| 2026-05-05 09:08 | 69.46460 | -140.58817 | 36963 ft | 529 kts | 24° |
| 2026-05-05 09:08 | 69.52993 | -140.49413 | 36967 ft | 529 kts | 24° |
| 2026-05-05 09:09 | 69.59563 | -140.39898 | 36979 ft | 529 kts | 24° |
| 2026-05-05 09:09 | 69.66123 | -140.30340 | 36984 ft | 529 kts | 24° |
| 2026-05-05 09:10 | 69.72681 | -140.20724 | 36992 ft | 529 kts | 24° |
| 2026-05-05 09:10 | 69.79236 | -140.11044 | 37003 ft | 529 kts | 24° |
| 2026-05-05 09:11 | 69.85784 | -140.01306 | 37010 ft | 529 kts | 24° |
| 2026-05-05 09:11 | 69.92327 | -139.91506 | 37016 ft | 529 kts | 24° |
| 2026-05-05 09:12 | 69.98859 | -139.81651 | 37023 ft | 528 kts | 24° |
| 2026-05-05 09:12 | 70.05379 | -139.71745 | 37028 ft | 527 kts | 24° |
| 2026-05-05 09:13 | 70.11877 | -139.61803 | 37036 ft | 526 kts | 24° |
| 2026-05-05 09:13 | 70.18348 | -139.51830 | 37041 ft | 524 kts | 24° |
| 2026-05-05 09:14 | 70.24798 | -139.41820 | 37050 ft | 523 kts | 24° |
| 2026-05-05 09:14 | 70.31228 | -139.31769 | 37048 ft | 522 kts | 24° |
| 2026-05-05 09:15 | 70.37634 | -139.21684 | 37056 ft | 521 kts | 24° |
| 2026-05-05 09:15 | 70.44024 | -139.11553 | 37061 ft | 520 kts | 24° |
| 2026-05-05 09:16 | 70.50399 | -139.01373 | 37069 ft | 519 kts | 25° |
| 2026-05-05 09:16 | 70.56764 | -138.91135 | 37077 ft | 519 kts | 25° |
| 2026-05-05 09:17 | 70.63121 | -138.80838 | 37076 ft | 519 kts | 25° |
| 2026-05-05 09:17 | 70.69475 | -138.70469 | 37088 ft | 519 kts | 25° |
| 2026-05-05 09:18 | 70.75821 | -138.60037 | 37092 ft | 519 kts | 25° |
| 2026-05-05 09:18 | 70.82158 | -138.49545 | 37096 ft | 519 kts | 25° |
| 2026-05-05 09:19 | 70.88489 | -138.38986 | 37095 ft | 519 kts | 25° |
| 2026-05-05 09:19 | 70.94771 | -138.28431 | 37101 ft | 519 kts | 25° |
| 2026-05-05 09:20 | 71.01088 | -138.17739 | 37093 ft | 518 kts | 25° |
| 2026-05-05 09:20 | 71.07391 | -138.06992 | 37096 ft | 518 kts | 25° |
| 2026-05-05 09:21 | 71.13685 | -137.96182 | 37109 ft | 518 kts | 25° |
| 2026-05-05 09:21 | 71.19970 | -137.85306 | 37106 ft | 517 kts | 25° |
| 2026-05-05 09:22 | 71.26243 | -137.74368 | 37112 ft | 517 kts | 25° |
| 2026-05-05 09:22 | 71.32509 | -137.63363 | 37116 ft | 517 kts | 26° |
| 2026-05-05 09:23 | 71.38765 | -137.52292 | 37119 ft | 516 kts | 26° |
| 2026-05-05 09:23 | 71.45008 | -137.41160 | 37121 ft | 516 kts | 26° |
| 2026-05-05 09:24 | 71.51240 | -137.29963 | 37123 ft | 516 kts | 26° |
| 2026-05-05 09:24 | 71.57465 | -137.18695 | 37130 ft | 515 kts | 26° |
| 2026-05-05 09:25 | 71.63674 | -137.07370 | 37131 ft | 515 kts | 26° |
| 2026-05-05 09:25 | 71.69874 | -136.95974 | 37131 ft | 515 kts | 26° |
| 2026-05-05 09:26 | 71.76062 | -136.84515 | 37130 ft | 514 kts | 26° |
| 2026-05-05 09:26 | 71.82243 | -136.72979 | 37141 ft | 514 kts | 26° |
| 2026-05-05 09:27 | 71.88415 | -136.61374 | 37141 ft | 514 kts | 27° |
| 2026-05-05 09:27 | 71.94579 | -136.49693 | 37146 ft | 514 kts | 27° |
| 2026-05-05 09:28 | 72.00693 | -136.38015 | 37146 ft | 514 kts | 27° |
| 2026-05-05 09:28 | 72.06842 | -136.26180 | 37152 ft | 514 kts | 27° |
| 2026-05-05 09:29 | 72.13019 | -136.14195 | 37154 ft | 514 kts | 27° |
| 2026-05-05 09:29 | 72.19115 | -136.02278 | 37155 ft | 514 kts | 27° |
| 2026-05-05 09:30 | 72.25239 | -135.90209 | 37155 ft | 514 kts | 27° |
| 2026-05-05 09:30 | 72.31355 | -135.78062 | 37159 ft | 514 kts | 28° |
| 2026-05-05 09:31 | 72.37461 | -135.65837 | 37159 ft | 514 kts | 28° |
| 2026-05-05 09:31 | 72.43562 | -135.53526 | 37150 ft | 513 kts | 28° |
| 2026-05-05 09:32 | 72.49650 | -135.41143 | 37156 ft | 513 kts | 28° |
| 2026-05-05 09:32 | 72.55730 | -135.28677 | 37166 ft | 513 kts | 28° |
| 2026-05-05 09:33 | 72.61794 | -135.16145 | 37173 ft | 513 kts | 28° |
| 2026-05-05 09:33 | 72.67850 | -135.03527 | 37170 ft | 513 kts | 28° |
| 2026-05-05 09:34 | 72.73902 | -134.90814 | 37171 ft | 513 kts | 28° |
| 2026-05-05 09:34 | 72.79940 | -134.78027 | 37178 ft | 513 kts | 29° |
| 2026-05-05 09:35 | 72.85931 | -134.65237 | 37173 ft | 512 kts | 29° |
| 2026-05-05 09:35 | 72.94962 | -134.45757 | 37182 ft | 512 kts | 29° |
| 2026-05-05 09:36 | 73.00970 | -134.32667 | 37182 ft | 512 kts | 29° |
| 2026-05-05 09:36 | 73.06970 | -134.19484 | 37187 ft | 512 kts | 30° |
| 2026-05-05 09:37 | 73.12958 | -134.06216 | 37192 ft | 512 kts | 30° |
| 2026-05-05 09:37 | 73.18940 | -133.92852 | 37187 ft | 512 kts | 30° |
| 2026-05-05 09:38 | 73.24909 | -133.79406 | 37191 ft | 512 kts | 30° |
| 2026-05-05 09:38 | 73.30864 | -133.65879 | 37191 ft | 512 kts | 30° |
| 2026-05-05 09:39 | 73.36812 | -133.52251 | 37195 ft | 511 kts | 30° |
| 2026-05-05 09:39 | 73.42747 | -133.38539 | 37194 ft | 511 kts | 30° |
| 2026-05-05 09:40 | 73.48670 | -133.24738 | 37196 ft | 511 kts | 31° |
| 2026-05-05 09:40 | 73.54579 | -133.10851 | 37201 ft | 511 kts | 31° |
| 2026-05-05 09:41 | 73.60475 | -132.96878 | 37203 ft | 510 kts | 31° |
| 2026-05-05 09:41 | 73.66358 | -132.82815 | 37203 ft | 510 kts | 31° |
| 2026-05-05 09:42 | 73.72229 | -132.68659 | 37205 ft | 510 kts | 31° |
| 2026-05-05 09:42 | 73.78090 | -132.54404 | 37206 ft | 509 kts | 31° |
| 2026-05-05 09:43 | 73.83933 | -132.40070 | 37215 ft | 509 kts | 32° |
| 2026-05-05 09:43 | 73.89758 | -132.25655 | 37214 ft | 508 kts | 32° |
| 2026-05-05 09:44 | 73.95539 | -132.11232 | 37213 ft | 508 kts | 32° |
| 2026-05-05 09:44 | 74.01406 | -131.97037 | 37220 ft | 505 kts | 27° |
| 2026-05-05 09:45 | 74.07573 | -131.84879 | 37216 ft | 504 kts | 24° |
| 2026-05-05 09:45 | 74.13793 | -131.73083 | 37220 ft | 504 kts | 25° |
| 2026-05-05 09:46 | 74.19992 | -131.61117 | 37218 ft | 504 kts | 25° |
| 2026-05-05 09:46 | 74.26170 | -131.48925 | 37223 ft | 504 kts | 25° |
| 2026-05-05 09:47 | 74.32336 | -131.36588 | 37228 ft | 504 kts | 26° |
| 2026-05-05 09:47 | 74.37450 | -131.26270 | 37230 ft | 504 kts | 26° |
| 2026-05-05 09:48 | 74.43605 | -131.13761 | 37231 ft | 504 kts | 26° |
| 2026-05-05 09:48 | 74.50749 | -130.99111 | 37238 ft | 504 kts | 26° |
| 2026-05-05 09:49 | 74.55888 | -130.88479 | 37220 ft | 504 kts | 26° |
| 2026-05-05 09:49 | 74.62020 | -130.75687 | 37234 ft | 504 kts | 26° |
| 2026-05-05 09:50 | 74.68139 | -130.62808 | 37243 ft | 504 kts | 26° |
| 2026-05-05 09:50 | 74.74248 | -130.49833 | 37243 ft | 504 kts | 27° |
| 2026-05-05 09:51 | 74.80347 | -130.36761 | 37249 ft | 503 kts | 27° |
| 2026-05-05 09:51 | 74.86446 | -130.23570 | 37245 ft | 503 kts | 27° |
| 2026-05-05 09:52 | 74.92529 | -130.10292 | 37250 ft | 503 kts | 27° |
| 2026-05-05 09:52 | 74.98559 | -129.97011 | 37249 ft | 503 kts | 27° |
| 2026-05-05 09:53 | 75.04624 | -129.83527 | 37260 ft | 503 kts | 27° |
| 2026-05-05 09:53 | 75.10682 | -129.69938 | 37259 ft | 503 kts | 28° |
| 2026-05-05 09:54 | 75.16724 | -129.56256 | 37262 ft | 502 kts | 28° |
| 2026-05-05 09:54 | 75.22760 | -129.42459 | 37264 ft | 502 kts | 28° |
| 2026-05-05 09:55 | 75.28784 | -129.28562 | 37269 ft | 502 kts | 28° |
| 2026-05-05 09:55 | 75.34799 | -129.14553 | 37275 ft | 502 kts | 28° |
| 2026-05-05 09:56 | 75.40802 | -129.00441 | 37278 ft | 502 kts | 28° |
| 2026-05-05 09:56 | 75.46799 | -128.86208 | 37278 ft | 502 kts | 28° |
| 2026-05-05 09:57 | 75.52781 | -128.71874 | 37285 ft | 502 kts | 29° |
| 2026-05-05 09:57 | 75.58758 | -128.57416 | 37289 ft | 502 kts | 29° |
| 2026-05-05 09:58 | 75.64719 | -128.42859 | 37295 ft | 501 kts | 29° |
| 2026-05-05 09:58 | 75.70673 | -128.28176 | 37298 ft | 501 kts | 29° |
| 2026-05-05 09:59 | 75.76616 | -128.13378 | 37288 ft | 501 kts | 30° |
| 2026-05-05 09:59 | 75.82549 | -127.98461 | 37295 ft | 501 kts | 30° |
| 2026-05-05 10:00 | 75.88468 | -127.83433 | 37292 ft | 501 kts | 30° |
| 2026-05-05 10:00 | 75.94376 | -127.68288 | 37313 ft | 501 kts | 30° |
| 2026-05-05 10:01 | 76.00237 | -127.53111 | 37318 ft | 500 kts | 30° |
| 2026-05-05 10:01 | 76.06119 | -127.37732 | 37319 ft | 500 kts | 30° |
| 2026-05-05 10:02 | 76.12034 | -127.22109 | 37323 ft | 500 kts | 31° |
| 2026-05-05 10:02 | 76.17854 | -127.06586 | 37321 ft | 500 kts | 31° |
| 2026-05-05 10:03 | 76.23705 | -126.90823 | 37323 ft | 500 kts | 31° |
| 2026-05-05 10:03 | 76.29543 | -126.74936 | 37331 ft | 500 kts | 31° |
| 2026-05-05 10:04 | 76.35373 | -126.58908 | 37334 ft | 500 kts | 31° |
| 2026-05-05 10:04 | 76.41195 | -126.42742 | 37339 ft | 500 kts | 31° |
| 2026-05-05 10:05 | 76.47007 | -126.26437 | 37341 ft | 500 kts | 32° |
| 2026-05-05 10:05 | 76.52804 | -126.10003 | 37344 ft | 500 kts | 32° |
| 2026-05-05 10:06 | 76.58587 | -125.93442 | 37345 ft | 500 kts | 32° |
| 2026-05-05 10:06 | 76.64361 | -125.76732 | 37349 ft | 499 kts | 32° |
| 2026-05-05 10:07 | 76.70119 | -125.59898 | 37356 ft | 499 kts | 32° |
| 2026-05-05 10:07 | 76.75866 | -125.42920 | 37359 ft | 499 kts | 32° |
| 2026-05-05 10:08 | 76.81601 | -125.25797 | 37361 ft | 499 kts | 33° |
| 2026-05-05 10:08 | 76.87321 | -125.08539 | 37361 ft | 499 kts | 33° |
| 2026-05-05 10:09 | 76.93028 | -124.91135 | 37362 ft | 499 kts | 33° |
| 2026-05-05 10:09 | 76.98720 | -124.73593 | 37364 ft | 499 kts | 33° |
| 2026-05-05 10:10 | 77.04402 | -124.55892 | 37369 ft | 498 kts | 33° |
| 2026-05-05 10:10 | 77.10067 | -124.38057 | 37369 ft | 498 kts | 34° |
| 2026-05-05 10:11 | 77.15721 | -124.20059 | 37370 ft | 498 kts | 34° |
| 2026-05-05 10:11 | 77.21360 | -124.01919 | 37374 ft | 498 kts | 34° |
| 2026-05-05 10:12 | 77.26988 | -123.83610 | 37375 ft | 498 kts | 34° |
| 2026-05-05 10:12 | 77.32603 | -123.65148 | 37379 ft | 498 kts | 34° |
| 2026-05-05 10:13 | 77.38163 | -123.46663 | 37375 ft | 498 kts | 35° |
| 2026-05-05 10:13 | 77.43749 | -123.27886 | 37380 ft | 498 kts | 35° |
| 2026-05-05 10:14 | 77.49319 | -123.08952 | 37383 ft | 498 kts | 35° |
| 2026-05-05 10:14 | 77.54877 | -122.89847 | 37383 ft | 498 kts | 36° |
| 2026-05-05 10:15 | 77.60420 | -122.70582 | 37386 ft | 498 kts | 36° |
| 2026-05-05 10:15 | 77.65949 | -122.51146 | 37389 ft | 497 kts | 36° |
| 2026-05-05 10:16 | 77.71463 | -122.31543 | 37389 ft | 497 kts | 36° |
| 2026-05-05 10:16 | 77.76959 | -122.11780 | 37391 ft | 497 kts | 36° |
| 2026-05-05 10:17 | 77.82440 | -121.91842 | 37397 ft | 497 kts | 36° |
| 2026-05-05 10:17 | 77.87908 | -121.71723 | 37399 ft | 497 kts | 37° |
| 2026-05-05 10:18 | 77.93364 | -121.51417 | 37400 ft | 497 kts | 37° |
| 2026-05-05 10:18 | 77.98802 | -121.30937 | 37406 ft | 497 kts | 37° |
| 2026-05-05 10:19 | 78.04227 | -121.10272 | 37407 ft | 497 kts | 37° |
| 2026-05-05 10:19 | 78.09638 | -120.89413 | 37411 ft | 497 kts | 37° |
| 2026-05-05 10:20 | 78.15031 | -120.68374 | 37414 ft | 497 kts | 38° |
| 2026-05-05 10:20 | 78.20413 | -120.47128 | 37420 ft | 498 kts | 38° |
| 2026-05-05 10:21 | 78.25741 | -120.25849 | 37423 ft | 498 kts | 38° |
| 2026-05-05 10:21 | 78.31088 | -120.04234 | 37426 ft | 497 kts | 38° |
| 2026-05-05 10:22 | 78.36415 | -119.82437 | 37429 ft | 497 kts | 38° |
| 2026-05-05 10:22 | 78.41729 | -119.60434 | 37434 ft | 497 kts | 39° |
| 2026-05-05 10:23 | 78.47018 | -119.38249 | 37432 ft | 497 kts | 39° |
| 2026-05-05 10:23 | 78.52294 | -119.15861 | 37439 ft | 497 kts | 39° |
| 2026-05-05 10:24 | 78.54929 | -119.04575 | 37565 ft | 498 kts | 39° |
| 2026-05-05 10:24 | 78.57553 | -118.93264 | 37848 ft | 496 kts | 39° |
| 2026-05-05 10:24 | 78.60168 | -118.81925 | 38109 ft | 495 kts | 40° |
| 2026-05-05 10:24 | 78.62780 | -118.70535 | 38336 ft | 495 kts | 40° |
| 2026-05-05 10:25 | 78.65382 | -118.59114 | 38564 ft | 495 kts | 40° |
| 2026-05-05 10:25 | 78.67983 | -118.47620 | 38784 ft | 495 kts | 40° |
| 2026-05-05 10:25 | 78.70575 | -118.36091 | 38998 ft | 495 kts | 40° |
| 2026-05-05 10:25 | 78.73164 | -118.24506 | 39171 ft | 495 kts | 40° |
| 2026-05-05 10:26 | 78.75751 | -118.12857 | 39322 ft | 495 kts | 40° |
| 2026-05-05 10:26 | 78.78340 | -118.01130 | 39383 ft | 497 kts | 40° |
| 2026-05-05 10:26 | 78.83519 | -117.77445 | 39445 ft | 498 kts | 41° |
| 2026-05-05 10:27 | 78.88668 | -117.53590 | 39457 ft | 496 kts | 41° |
| 2026-05-05 10:27 | 78.93778 | -117.29614 | 39466 ft | 494 kts | 41° |
| 2026-05-05 10:28 | 78.98859 | -117.05496 | 39467 ft | 493 kts | 41° |
| 2026-05-05 10:28 | 79.03814 | -116.80682 | 39470 ft | 492 kts | 45° |
| 2026-05-05 10:29 | 79.08537 | -116.54938 | 39472 ft | 492 kts | 46° |
| 2026-05-05 10:29 | 79.13259 | -116.28741 | 39478 ft | 492 kts | 46° |
| 2026-05-05 10:30 | 79.17991 | -116.02438 | 39482 ft | 492 kts | 46° |
| 2026-05-05 10:30 | 79.22717 | -115.75983 | 39483 ft | 493 kts | 46° |
| 2026-05-05 10:31 | 79.27427 | -115.49302 | 39489 ft | 493 kts | 46° |
| 2026-05-05 10:31 | 79.32115 | -115.22370 | 39491 ft | 493 kts | 46° |
| 2026-05-05 10:32 | 79.36780 | -114.95195 | 39494 ft | 493 kts | 47° |
| 2026-05-05 10:32 | 79.41421 | -114.67776 | 39494 ft | 493 kts | 47° |
| 2026-05-05 10:33 | 79.46037 | -114.40126 | 39498 ft | 493 kts | 47° |
| 2026-05-05 10:33 | 79.50629 | -114.12236 | 39499 ft | 493 kts | 48° |
| 2026-05-05 10:34 | 79.55194 | -113.84120 | 39504 ft | 493 kts | 48° |
| 2026-05-05 10:34 | 79.59733 | -113.55769 | 39504 ft | 493 kts | 49° |
| 2026-05-05 10:35 | 79.64244 | -113.27193 | 39508 ft | 492 kts | 49° |
| 2026-05-05 10:35 | 79.68730 | -112.98366 | 39510 ft | 492 kts | 49° |
| 2026-05-05 10:36 | 79.72435 | -112.74242 | 39508 ft | 492 kts | 49° |
| 2026-05-05 10:36 | 79.76871 | -112.44972 | 39511 ft | 492 kts | 50° |
| 2026-05-05 10:37 | 79.81280 | -112.15461 | 39514 ft | 492 kts | 50° |
| 2026-05-05 10:37 | 79.85662 | -111.85697 | 39516 ft | 492 kts | 50° |
| 2026-05-05 10:38 | 79.90015 | -111.55691 | 39518 ft | 492 kts | 51° |
| 2026-05-05 10:38 | 79.94341 | -111.25428 | 39525 ft | 492 kts | 51° |
| 2026-05-05 10:39 | 79.98639 | -110.94903 | 39522 ft | 492 kts | 51° |
| 2026-05-05 10:39 | 80.02909 | -110.64125 | 39526 ft | 492 kts | 51° |
| 2026-05-05 10:40 | 80.07149 | -110.33095 | 39527 ft | 492 kts | 52° |
| 2026-05-05 10:40 | 80.11361 | -110.01800 | 39532 ft | 492 kts | 52° |
| 2026-05-05 10:41 | 80.15543 | -109.70244 | 39534 ft | 492 kts | 52° |
| 2026-05-05 10:41 | 80.19663 | -109.38668 | 39535 ft | 491 kts | 53° |
| 2026-05-05 10:42 | 80.25829 | -108.90489 | 39537 ft | 491 kts | 53° |
| 2026-05-05 10:43 | 80.29903 | -108.58033 | 39540 ft | 491 kts | 53° |
| 2026-05-05 10:43 | 80.33941 | -108.25340 | 39541 ft | 491 kts | 54° |
| 2026-05-05 10:44 | 80.37948 | -107.92378 | 39543 ft | 490 kts | 54° |
| 2026-05-05 10:44 | 80.41919 | -107.59176 | 39542 ft | 490 kts | 54° |
| 2026-05-05 10:45 | 80.45858 | -107.25715 | 39549 ft | 490 kts | 55° |
| 2026-05-05 10:45 | 80.49762 | -106.91996 | 39548 ft | 490 kts | 55° |
| 2026-05-05 10:46 | 80.53628 | -106.58044 | 39550 ft | 489 kts | 56° |
| 2026-05-05 10:46 | 80.57465 | -106.23794 | 39549 ft | 489 kts | 56° |
| 2026-05-05 10:47 | 80.61263 | -105.89314 | 39552 ft | 489 kts | 57° |
| 2026-05-05 10:47 | 80.65026 | -105.54570 | 39553 ft | 489 kts | 57° |
| 2026-05-05 10:48 | 80.68753 | -105.19570 | 39552 ft | 488 kts | 57° |
| 2026-05-05 10:48 | 80.72445 | -104.84299 | 39559 ft | 488 kts | 57° |
| 2026-05-05 10:49 | 80.76103 | -104.48737 | 39561 ft | 488 kts | 58° |
| 2026-05-05 10:49 | 80.79724 | -104.12921 | 39560 ft | 488 kts | 58° |
| 2026-05-05 10:50 | 80.83308 | -103.76833 | 39565 ft | 488 kts | 59° |
| 2026-05-05 10:50 | 80.86834 | -103.40689 | 39563 ft | 488 kts | 59° |
| 2026-05-05 10:51 | 80.90348 | -103.04030 | 39562 ft | 488 kts | 59° |
| 2026-05-05 10:51 | 80.93824 | -102.67088 | 39562 ft | 488 kts | 60° |
| 2026-05-05 10:52 | 80.97263 | -102.29870 | 39560 ft | 488 kts | 60° |
| 2026-05-05 10:52 | 81.00665 | -101.92364 | 39560 ft | 488 kts | 60° |
| 2026-05-05 10:53 | 81.04026 | -101.54600 | 39563 ft | 488 kts | 61° |
| 2026-05-05 10:53 | 81.07351 | -101.16543 | 39564 ft | 488 kts | 62° |
| 2026-05-05 10:54 | 81.10630 | -100.78275 | 39562 ft | 488 kts | 62° |
| 2026-05-05 10:54 | 81.13873 | -100.39686 | 39560 ft | 488 kts | 62° |
| 2026-05-05 10:55 | 81.17075 | -100.00834 | 39564 ft | 488 kts | 63° |
| 2026-05-05 10:55 | 81.20235 | -99.61732 | 39562 ft | 487 kts | 63° |
| 2026-05-05 10:56 | 81.23356 | -99.22322 | 39562 ft | 487 kts | 63° |
| 2026-05-05 10:56 | 81.26432 | -98.82681 | 39562 ft | 487 kts | 64° |
| 2026-05-05 10:57 | 81.29467 | -98.42766 | 39563 ft | 487 kts | 64° |
| 2026-05-05 10:57 | 81.32459 | -98.02593 | 39564 ft | 487 kts | 65° |
| 2026-05-05 10:58 | 81.35388 | -97.62434 | 39562 ft | 487 kts | 65° |
| 2026-05-05 10:58 | 81.38293 | -97.21745 | 39563 ft | 487 kts | 65° |
| 2026-05-05 10:59 | 81.41153 | -96.80816 | 39562 ft | 486 kts | 66° |
| 2026-05-05 10:59 | 81.43970 | -96.39601 | 39557 ft | 486 kts | 66° |
| 2026-05-05 11:00 | 81.46743 | -95.98133 | 39567 ft | 486 kts | 67° |
| 2026-05-05 11:00 | 81.49469 | -95.56423 | 39562 ft | 486 kts | 67° |
| 2026-05-05 11:01 | 81.52153 | -95.14416 | 39563 ft | 486 kts | 68° |
| 2026-05-05 11:01 | 81.54790 | -94.72182 | 39567 ft | 486 kts | 68° |
| 2026-05-05 11:02 | 81.57381 | -94.29699 | 39565 ft | 486 kts | 69° |
| 2026-05-05 11:02 | 81.59925 | -93.86958 | 39569 ft | 486 kts | 69° |
| 2026-05-05 11:03 | 81.62423 | -93.43959 | 39567 ft | 486 kts | 70° |
| 2026-05-05 11:03 | 81.64874 | -93.00732 | 39574 ft | 486 kts | 70° |
| 2026-05-05 11:04 | 81.67278 | -92.57237 | 39571 ft | 486 kts | 70° |
| 2026-05-05 11:04 | 81.69634 | -92.13495 | 39573 ft | 486 kts | 71° |
| 2026-05-05 11:05 | 81.71943 | -91.69488 | 39574 ft | 486 kts | 71° |
| 2026-05-05 11:05 | 81.74204 | -91.25246 | 39577 ft | 486 kts | 72° |
| 2026-05-05 11:06 | 81.76402 | -90.81047 | 39579 ft | 486 kts | 72° |
| 2026-05-05 11:06 | 81.78566 | -90.36313 | 39582 ft | 486 kts | 72° |
| 2026-05-05 11:07 | 81.80678 | -89.91387 | 39576 ft | 486 kts | 73° |
| 2026-05-05 11:07 | 81.82743 | -89.46185 | 39579 ft | 486 kts | 73° |
| 2026-05-05 11:08 | 81.84756 | -89.00785 | 39578 ft | 486 kts | 74° |
| 2026-05-05 11:08 | 81.86721 | -88.55101 | 39583 ft | 486 kts | 74° |
| 2026-05-05 11:09 | 81.88633 | -88.09262 | 39578 ft | 486 kts | 75° |
| 2026-05-05 11:09 | 81.90494 | -87.63172 | 39567 ft | 486 kts | 75° |
| 2026-05-05 11:10 | 81.92305 | -87.16849 | 39577 ft | 486 kts | 76° |
| 2026-05-05 11:10 | 81.94061 | -86.70398 | 39577 ft | 486 kts | 76° |
| 2026-05-05 11:11 | 81.95764 | -86.23730 | 39579 ft | 486 kts | 77° |
| 2026-05-05 11:11 | 81.97415 | -85.76891 | 39579 ft | 486 kts | 77° |
| 2026-05-05 11:12 | 81.99021 | -85.29850 | 39576 ft | 486 kts | 77° |
| 2026-05-05 11:12 | 82.00536 | -84.82604 | 39557 ft | 486 kts | 79° |
| 2026-05-05 11:13 | 82.01732 | -84.34821 | 39565 ft | 485 kts | 82° |
| 2026-05-05 11:13 | 82.02803 | -83.86853 | 39561 ft | 485 kts | 82° |
| 2026-05-05 11:14 | 82.03849 | -83.38819 | 39558 ft | 485 kts | 82° |
| 2026-05-05 11:14 | 82.04869 | -82.90634 | 39553 ft | 485 kts | 82° |
| 2026-05-05 11:15 | 82.05840 | -82.42419 | 39562 ft | 485 kts | 83° |
| 2026-05-05 11:15 | 82.06757 | -81.94047 | 39561 ft | 485 kts | 83° |
| 2026-05-05 11:16 | 82.07610 | -81.45936 | 39549 ft | 485 kts | 84° |
| 2026-05-05 11:16 | 82.08412 | -80.97377 | 39536 ft | 485 kts | 84° |
| 2026-05-05 11:17 | 82.09158 | -80.48690 | 39538 ft | 485 kts | 85° |
| 2026-05-05 11:17 | 82.09848 | -79.99924 | 39526 ft | 485 kts | 85° |
| 2026-05-05 11:18 | 82.10481 | -79.51120 | 39526 ft | 485 kts | 86° |
| 2026-05-05 11:18 | 82.11057 | -79.02162 | 39520 ft | 486 kts | 86° |
| 2026-05-05 11:19 | 82.11577 | -78.53137 | 39523 ft | 486 kts | 87° |
| 2026-05-05 11:19 | 82.12041 | -78.04038 | 39515 ft | 485 kts | 87° |
| 2026-05-05 11:20 | 82.12446 | -77.54942 | 39510 ft | 485 kts | 88° |
| 2026-05-05 11:20 | 82.12794 | -77.05782 | 39506 ft | 485 kts | 88° |
| 2026-05-05 11:21 | 82.13085 | -76.56585 | 39510 ft | 485 kts | 89° |
| 2026-05-05 11:21 | 82.13319 | -76.07368 | 39512 ft | 485 kts | 89° |
| 2026-05-05 11:22 | 82.13495 | -75.58120 | 39502 ft | 485 kts | 89° |
| 2026-05-05 11:22 | 82.13614 | -75.08815 | 39506 ft | 485 kts | 90° |
| 2026-05-05 11:23 | 82.13676 | -74.59568 | 39514 ft | 485 kts | 90° |
| 2026-05-05 11:23 | 82.13680 | -74.10626 | 39506 ft | 485 kts | 91° |
| 2026-05-05 11:24 | 82.13627 | -73.61326 | 39510 ft | 485 kts | 91° |
| 2026-05-05 11:24 | 82.13516 | -73.12093 | 39516 ft | 485 kts | 92° |
| 2026-05-05 11:25 | 82.13348 | -72.62795 | 39523 ft | 486 kts | 92° |
| 2026-05-05 11:25 | 82.13123 | -72.13526 | 39535 ft | 486 kts | 93° |
| 2026-05-05 11:26 | 82.12840 | -71.64302 | 39542 ft | 486 kts | 93° |
| 2026-05-05 11:26 | 82.12561 | -71.23381 | 39553 ft | 486 kts | 94° |
| 2026-05-05 11:27 | 82.12173 | -70.74197 | 39554 ft | 486 kts | 94° |
| 2026-05-05 11:27 | 82.11727 | -70.25011 | 39560 ft | 486 kts | 95° |
| 2026-05-05 11:28 | 82.11224 | -69.75876 | 39561 ft | 487 kts | 95° |
| 2026-05-05 11:28 | 82.10664 | -69.26793 | 39577 ft | 487 kts | 96° |
| 2026-05-05 11:29 | 82.10045 | -68.77763 | 39572 ft | 487 kts | 96° |
| 2026-05-05 11:29 | 82.09371 | -68.28823 | 39582 ft | 487 kts | 96° |
| 2026-05-05 11:30 | 82.08639 | -67.79998 | 39578 ft | 487 kts | 97° |
| 2026-05-05 11:30 | 82.07851 | -67.31251 | 39585 ft | 487 kts | 97° |
| 2026-05-05 11:31 | 82.07007 | -66.82603 | 39585 ft | 487 kts | 98° |
| 2026-05-05 11:31 | 82.06106 | -66.34060 | 39588 ft | 487 kts | 98° |
| 2026-05-05 11:32 | 82.05149 | -65.85650 | 39587 ft | 487 kts | 99° |
| 2026-05-05 11:32 | 82.04135 | -65.37312 | 39592 ft | 487 kts | 99° |
| 2026-05-05 11:33 | 82.03073 | -64.89399 | 39592 ft | 487 kts | 99° |
| 2026-05-05 11:33 | 82.01949 | -64.41345 | 39593 ft | 487 kts | 100° |
| 2026-05-05 11:34 | 82.00769 | -63.93400 | 39604 ft | 487 kts | 101° |
| 2026-05-05 11:34 | 81.99533 | -63.45541 | 39610 ft | 487 kts | 101° |
| 2026-05-05 11:35 | 81.98242 | -62.97854 | 39614 ft | 487 kts | 101° |
| 2026-05-05 11:35 | 81.96896 | -62.50319 | 39612 ft | 487 kts | 102° |
| 2026-05-05 11:36 | 81.95497 | -62.02954 | 39606 ft | 488 kts | 102° |
| 2026-05-05 11:36 | 81.94042 | -61.55734 | 39602 ft | 487 kts | 103° |
| 2026-05-05 11:37 | 81.92533 | -61.08668 | 39606 ft | 488 kts | 103° |
| 2026-05-05 11:37 | 81.90970 | -60.61757 | 39606 ft | 488 kts | 104° |
| 2026-05-05 11:38 | 81.89355 | -60.15079 | 39601 ft | 488 kts | 104° |
| 2026-05-05 11:38 | 81.87686 | -59.68526 | 39605 ft | 488 kts | 105° |
| 2026-05-05 11:39 | 81.85964 | -59.22177 | 39606 ft | 488 kts | 105° |
| 2026-05-05 11:39 | 81.84200 | -58.76311 | 39606 ft | 488 kts | 105° |
| 2026-05-05 11:40 | 81.82374 | -58.30348 | 39600 ft | 488 kts | 106° |
| 2026-05-05 11:40 | 81.80497 | -57.84627 | 39600 ft | 488 kts | 107° |
| 2026-05-05 11:41 | 81.78569 | -57.39116 | 39599 ft | 487 kts | 107° |
| 2026-05-05 11:41 | 81.76591 | -56.93841 | 39590 ft | 487 kts | 107° |
| 2026-05-05 11:42 | 81.74562 | -56.48767 | 39591 ft | 487 kts | 108° |
| 2026-05-05 11:42 | 81.72486 | -56.03979 | 39590 ft | 487 kts | 108° |
| 2026-05-05 11:43 | 81.70357 | -55.59358 | 39594 ft | 487 kts | 109° |
| 2026-05-05 11:43 | 81.68179 | -55.14983 | 39592 ft | 487 kts | 109° |
| 2026-05-05 11:44 | 81.65955 | -54.70875 | 39599 ft | 487 kts | 109° |
| 2026-05-05 11:44 | 81.63677 | -54.26906 | 39597 ft | 488 kts | 110° |
| 2026-05-05 11:45 | 81.61352 | -53.83208 | 39597 ft | 488 kts | 110° |
| 2026-05-05 11:45 | 81.58977 | -53.39692 | 39600 ft | 488 kts | 111° |
| 2026-05-05 11:46 | 81.56570 | -52.96722 | 39601 ft | 488 kts | 111° |
| 2026-05-05 11:46 | 81.54103 | -52.53744 | 39596 ft | 488 kts | 111° |
| 2026-05-05 11:47 | 81.51586 | -52.10970 | 39597 ft | 488 kts | 112° |
| 2026-05-05 11:47 | 81.49021 | -51.68420 | 39595 ft | 489 kts | 112° |
| 2026-05-05 11:48 | 81.45087 | -51.05055 | 39601 ft | 489 kts | 113° |
| 2026-05-05 11:48 | 81.42405 | -50.63106 | 39604 ft | 489 kts | 113° |
| 2026-05-05 11:49 | 81.39680 | -50.21448 | 39604 ft | 489 kts | 114° |
| 2026-05-05 11:49 | 81.36907 | -49.80004 | 39614 ft | 489 kts | 114° |
| 2026-05-05 11:50 | 81.34092 | -49.38846 | 39626 ft | 489 kts | 115° |
| 2026-05-05 11:50 | 81.31231 | -48.97939 | 39631 ft | 490 kts | 115° |
| 2026-05-05 11:51 | 81.28325 | -48.57264 | 39642 ft | 490 kts | 115° |
| 2026-05-05 11:51 | 81.25376 | -48.16864 | 39648 ft | 490 kts | 116° |
| 2026-05-05 11:52 | 81.22383 | -47.76706 | 39661 ft | 490 kts | 116° |
| 2026-05-05 11:52 | 81.19349 | -47.36846 | 39670 ft | 490 kts | 116° |
| 2026-05-05 11:53 | 81.16271 | -46.97224 | 39676 ft | 490 kts | 117° |
| 2026-05-05 11:53 | 81.13153 | -46.57888 | 39684 ft | 490 kts | 117° |
| 2026-05-05 11:54 | 81.10017 | -46.19103 | 39690 ft | 490 kts | 117° |
| 2026-05-05 11:54 | 81.06819 | -45.80321 | 39692 ft | 490 kts | 118° |
| 2026-05-05 11:55 | 81.03584 | -45.41827 | 39701 ft | 490 kts | 118° |
| 2026-05-05 11:55 | 81.00314 | -45.03585 | 39705 ft | 490 kts | 119° |
| 2026-05-05 11:56 | 80.97095 | -44.65336 | 39709 ft | 490 kts | 117° |
| 2026-05-05 11:56 | 80.93946 | -44.26973 | 39712 ft | 490 kts | 117° |
| 2026-05-05 11:57 | 80.90761 | -43.88838 | 39710 ft | 490 kts | 118° |
| 2026-05-05 11:57 | 80.87523 | -43.51045 | 39708 ft | 490 kts | 118° |
| 2026-05-05 11:58 | 80.84235 | -43.13548 | 39701 ft | 490 kts | 119° |
| 2026-05-05 11:58 | 80.80907 | -42.76312 | 39692 ft | 490 kts | 119° |
| 2026-05-05 11:59 | 80.77540 | -42.39327 | 39686 ft | 490 kts | 120° |
| 2026-05-05 11:59 | 80.74134 | -42.02592 | 39677 ft | 490 kts | 120° |
| 2026-05-05 12:00 | 80.70690 | -41.66110 | 39667 ft | 490 kts | 120° |
| 2026-05-05 12:00 | 80.67210 | -41.29895 | 39662 ft | 490 kts | 121° |
| 2026-05-05 12:01 | 80.63694 | -40.93966 | 39658 ft | 491 kts | 121° |
| 2026-05-05 12:01 | 80.60161 | -40.58480 | 39651 ft | 491 kts | 121° |
| 2026-05-05 12:02 | 80.56570 | -40.23040 | 39648 ft | 491 kts | 122° |
| 2026-05-05 12:02 | 80.52942 | -39.87851 | 39640 ft | 491 kts | 122° |
| 2026-05-05 12:03 | 80.49277 | -39.52914 | 39648 ft | 491 kts | 122° |
| 2026-05-05 12:03 | 80.45580 | -39.18262 | 39649 ft | 491 kts | 122° |
| 2026-05-05 12:04 | 80.41847 | -38.83858 | 39648 ft | 491 kts | 123° |
| 2026-05-05 12:04 | 80.38076 | -38.49674 | 39647 ft | 492 kts | 123° |
| 2026-05-05 12:05 | 80.34271 | -38.15758 | 39650 ft | 492 kts | 123° |
| 2026-05-05 12:05 | 80.30431 | -37.82088 | 39658 ft | 492 kts | 124° |
| 2026-05-05 12:06 | 80.26559 | -37.48688 | 39663 ft | 492 kts | 124° |
| 2026-05-05 12:06 | 80.22655 | -37.15544 | 39667 ft | 492 kts | 124° |
| 2026-05-05 12:07 | 80.18716 | -36.82649 | 39671 ft | 492 kts | 125° |
| 2026-05-05 12:07 | 80.14743 | -36.49988 | 39677 ft | 492 kts | 125° |
| 2026-05-05 12:08 | 80.10740 | -36.17598 | 39676 ft | 493 kts | 125° |
| 2026-05-05 12:08 | 80.06705 | -35.85454 | 39676 ft | 493 kts | 126° |
| 2026-05-05 12:09 | 80.02635 | -35.53533 | 39678 ft | 493 kts | 126° |
| 2026-05-05 12:09 | 79.98539 | -35.21904 | 39680 ft | 493 kts | 126° |
| 2026-05-05 12:10 | 79.94406 | -34.90480 | 39673 ft | 493 kts | 127° |
| 2026-05-05 12:10 | 79.90247 | -34.59333 | 39684 ft | 494 kts | 127° |
| 2026-05-05 12:11 | 79.86053 | -34.28391 | 39686 ft | 494 kts | 127° |
| 2026-05-05 12:11 | 79.81827 | -33.97679 | 39686 ft | 494 kts | 127° |
| 2026-05-05 12:12 | 79.77575 | -33.67238 | 39687 ft | 494 kts | 128° |
| 2026-05-05 12:12 | 79.73320 | -33.37227 | 39702 ft | 494 kts | 128° |
| 2026-05-05 12:13 | 79.69007 | -33.07244 | 39705 ft | 495 kts | 128° |
| 2026-05-05 12:13 | 79.64665 | -32.77507 | 39712 ft | 495 kts | 128° |
| 2026-05-05 12:14 | 79.60294 | -32.47998 | 39717 ft | 495 kts | 129° |
| 2026-05-05 12:14 | 79.55897 | -32.18741 | 39725 ft | 495 kts | 129° |
| 2026-05-05 12:15 | 79.51475 | -31.89731 | 39732 ft | 495 kts | 129° |
| 2026-05-05 12:15 | 79.47021 | -31.60929 | 39738 ft | 495 kts | 129° |
| 2026-05-05 12:16 | 79.42542 | -31.32368 | 39739 ft | 495 kts | 130° |
| 2026-05-05 12:16 | 79.38769 | -31.08621 | 39739 ft | 495 kts | 130° |
| 2026-05-05 12:17 | 79.34243 | -30.80497 | 39743 ft | 496 kts | 130° |
| 2026-05-05 12:17 | 79.29717 | -30.52765 | 39739 ft | 496 kts | 130° |
| 2026-05-05 12:18 | 79.25136 | -30.25079 | 39735 ft | 496 kts | 131° |
| 2026-05-05 12:18 | 79.20527 | -29.97601 | 39734 ft | 496 kts | 131° |
| 2026-05-05 12:19 | 79.15894 | -29.70352 | 39728 ft | 497 kts | 131° |
| 2026-05-05 12:19 | 79.11232 | -29.43300 | 39726 ft | 497 kts | 131° |
| 2026-05-05 12:20 | 79.06546 | -29.16479 | 39720 ft | 497 kts | 132° |
| 2026-05-05 12:20 | 79.01836 | -28.89890 | 39714 ft | 497 kts | 132° |
| 2026-05-05 12:21 | 78.97102 | -28.63514 | 39710 ft | 497 kts | 132° |
| 2026-05-05 12:21 | 78.92348 | -28.37371 | 39708 ft | 497 kts | 133° |
| 2026-05-05 12:22 | 78.87574 | -28.11465 | 39697 ft | 497 kts | 133° |
| 2026-05-05 12:22 | 78.82776 | -27.85762 | 39694 ft | 497 kts | 133° |
| 2026-05-05 12:23 | 78.77956 | -27.60280 | 39692 ft | 497 kts | 133° |
| 2026-05-05 12:23 | 78.73118 | -27.35025 | 39685 ft | 497 kts | 133° |
| 2026-05-05 12:24 | 78.68255 | -27.09963 | 39682 ft | 497 kts | 133° |
| 2026-05-05 12:24 | 78.63364 | -26.85083 | 39677 ft | 497 kts | 134° |
| 2026-05-05 12:25 | 78.58488 | -26.60591 | 39675 ft | 498 kts | 134° |
| 2026-05-05 12:25 | 78.53554 | -26.36124 | 39670 ft | 498 kts | 134° |
| 2026-05-05 12:26 | 78.48598 | -26.11846 | 39673 ft | 498 kts | 135° |
| 2026-05-05 12:26 | 78.43624 | -25.87790 | 39668 ft | 498 kts | 135° |
| 2026-05-05 12:27 | 78.38636 | -25.63963 | 39667 ft | 497 kts | 135° |
| 2026-05-05 12:27 | 78.33633 | -25.40357 | 39659 ft | 497 kts | 135° |
| 2026-05-05 12:28 | 78.28612 | -25.16957 | 39655 ft | 496 kts | 135° |
| 2026-05-05 12:28 | 78.23579 | -24.93782 | 39667 ft | 496 kts | 136° |
| 2026-05-05 12:29 | 78.18522 | -24.70784 | 39665 ft | 496 kts | 136° |
| 2026-05-05 12:29 | 78.13452 | -24.47994 | 39652 ft | 496 kts | 136° |
| 2026-05-05 12:30 | 78.08359 | -24.25376 | 39646 ft | 496 kts | 136° |
| 2026-05-05 12:30 | 78.03283 | -24.03108 | 39637 ft | 497 kts | 136° |
| 2026-05-05 12:31 | 77.98149 | -23.80845 | 39632 ft | 497 kts | 137° |
| 2026-05-05 12:31 | 77.92997 | -23.58774 | 39625 ft | 497 kts | 136° |
| 2026-05-05 12:32 | 77.87821 | -23.36845 | 39622 ft | 498 kts | 137° |
| 2026-05-05 12:32 | 77.82629 | -23.15106 | 39615 ft | 498 kts | 137° |
| 2026-05-05 12:33 | 77.77413 | -22.93527 | 39621 ft | 498 kts | 137° |
| 2026-05-05 12:33 | 77.72180 | -22.72125 | 39613 ft | 498 kts | 138° |
| 2026-05-05 12:34 | 77.66927 | -22.50892 | 39609 ft | 498 kts | 138° |
| 2026-05-05 12:34 | 77.61664 | -22.29860 | 39610 ft | 498 kts | 138° |
| 2026-05-05 12:35 | 77.56390 | -22.09024 | 39605 ft | 497 kts | 139° |
| 2026-05-05 12:35 | 77.51141 | -21.88515 | 39607 ft | 497 kts | 139° |
| 2026-05-05 12:36 | 77.45843 | -21.68049 | 39607 ft | 497 kts | 139° |
| 2026-05-05 12:36 | 77.40535 | -21.47772 | 39610 ft | 496 kts | 139° |
| 2026-05-05 12:37 | 77.35209 | -21.27656 | 39608 ft | 496 kts | 139° |
| 2026-05-05 12:37 | 77.29871 | -21.07712 | 39603 ft | 497 kts | 140° |
| 2026-05-05 12:38 | 77.24518 | -20.87932 | 39605 ft | 496 kts | 140° |
| 2026-05-05 12:38 | 77.19155 | -20.68332 | 39607 ft | 496 kts | 140° |
| 2026-05-05 12:39 | 77.13780 | -20.48899 | 39608 ft | 496 kts | 140° |
| 2026-05-05 12:39 | 77.08384 | -20.29599 | 39609 ft | 496 kts | 140° |
| 2026-05-05 12:40 | 77.02980 | -20.10453 | 39605 ft | 497 kts | 140° |
| 2026-05-05 12:40 | 76.97554 | -19.91426 | 39606 ft | 497 kts | 140° |
| 2026-05-05 12:41 | 76.92129 | -19.72432 | 39607 ft | 497 kts | 140° |
| 2026-05-05 12:41 | 76.86700 | -19.53556 | 39604 ft | 498 kts | 141° |
| 2026-05-05 12:42 | 76.81247 | -19.34807 | 39607 ft | 498 kts | 141° |
| 2026-05-05 12:42 | 76.75783 | -19.16234 | 39602 ft | 498 kts | 141° |
| 2026-05-05 12:43 | 76.70298 | -18.97791 | 39609 ft | 498 kts | 141° |
| 2026-05-05 12:43 | 76.64833 | -18.79606 | 39602 ft | 499 kts | 141° |
| 2026-05-05 12:44 | 76.59280 | -18.61320 | 39597 ft | 499 kts | 141° |
| 2026-05-05 12:44 | 76.53789 | -18.43427 | 39596 ft | 499 kts | 141° |
| 2026-05-05 12:45 | 76.48242 | -18.25537 | 39594 ft | 499 kts | 142° |
| 2026-05-05 12:45 | 76.42689 | -18.07809 | 39593 ft | 499 kts | 142° |
| 2026-05-05 12:46 | 76.37114 | -17.90197 | 39587 ft | 499 kts | 142° |
| 2026-05-05 12:46 | 76.31526 | -17.72723 | 39584 ft | 500 kts | 142° |
| 2026-05-05 12:47 | 76.25923 | -17.55374 | 39580 ft | 500 kts | 142° |
| 2026-05-05 12:47 | 76.20304 | -17.38153 | 39582 ft | 500 kts | 142° |
| 2026-05-05 12:48 | 76.14665 | -17.21052 | 39575 ft | 501 kts | 142° |
| 2026-05-05 12:48 | 76.09014 | -17.04081 | 39571 ft | 501 kts | 142° |
| 2026-05-05 12:49 | 76.03340 | -16.87213 | 39567 ft | 502 kts | 143° |
| 2026-05-05 12:49 | 75.97650 | -16.70464 | 39564 ft | 502 kts | 143° |
| 2026-05-05 12:50 | 75.91944 | -16.53835 | 39566 ft | 503 kts | 143° |
| 2026-05-05 12:50 | 75.86258 | -16.37425 | 39546 ft | 504 kts | 143° |
| 2026-05-05 12:51 | 75.80518 | -16.21036 | 39553 ft | 504 kts | 143° |
| 2026-05-05 12:51 | 75.74762 | -16.04735 | 39538 ft | 505 kts | 143° |
| 2026-05-05 12:52 | 75.68983 | -15.88548 | 39551 ft | 505 kts | 144° |
| 2026-05-05 12:52 | 75.63187 | -15.72464 | 39530 ft | 505 kts | 143° |
| 2026-05-05 12:53 | 75.57385 | -15.56531 | 39529 ft | 505 kts | 144° |
| 2026-05-05 12:53 | 75.51566 | -15.40701 | 39525 ft | 506 kts | 144° |
| 2026-05-05 12:54 | 75.42828 | -15.17197 | 39514 ft | 505 kts | 144° |
| 2026-05-05 12:55 | 75.36991 | -15.01701 | 39512 ft | 505 kts | 144° |
| 2026-05-05 12:55 | 75.31141 | -14.86321 | 39510 ft | 505 kts | 144° |
| 2026-05-05 12:56 | 75.25288 | -14.71077 | 39498 ft | 505 kts | 145° |
| 2026-05-05 12:56 | 75.19419 | -14.55922 | 39503 ft | 505 kts | 145° |
| 2026-05-05 12:57 | 75.13543 | -14.40889 | 39495 ft | 505 kts | 145° |
| 2026-05-05 12:57 | 75.07648 | -14.25965 | 39490 ft | 505 kts | 145° |
| 2026-05-05 12:58 | 75.01793 | -14.11262 | 39483 ft | 505 kts | 146° |
| 2026-05-05 12:58 | 74.95887 | -13.96573 | 39474 ft | 505 kts | 146° |
| 2026-05-05 12:59 | 74.89961 | -13.81989 | 39478 ft | 506 kts | 146° |
| 2026-05-05 12:59 | 74.84030 | -13.67506 | 39469 ft | 506 kts | 146° |
| 2026-05-05 13:00 | 74.75093 | -13.45944 | 39461 ft | 507 kts | 146° |
| 2026-05-05 13:01 | 74.63122 | -13.17502 | 39446 ft | 509 kts | 147° |
| 2026-05-05 13:01 | 74.57094 | -13.03396 | 39445 ft | 511 kts | 146° |
| 2026-05-05 13:02 | 74.51019 | -12.89295 | 39443 ft | 516 kts | 147° |
| 2026-05-05 13:02 | 74.44907 | -12.75240 | 39419 ft | 514 kts | 147° |
| 2026-05-05 13:03 | 74.38797 | -12.61311 | 39434 ft | 517 kts | 146° |
| 2026-05-05 13:03 | 74.32663 | -12.47457 | 39416 ft | 513 kts | 147° |
| 2026-05-05 13:04 | 74.26536 | -12.33742 | 39414 ft | 518 kts | 147° |
| 2026-05-05 13:04 | 74.20369 | -12.20055 | 39403 ft | 515 kts | 147° |
| 2026-05-05 13:05 | 74.14227 | -12.06559 | 39410 ft | 517 kts | 147° |
| 2026-05-05 13:05 | 74.08044 | -11.93086 | 39398 ft | 518 kts | 148° |
| 2026-05-05 13:06 | 74.01843 | -11.79700 | 39395 ft | 519 kts | 148° |
| 2026-05-05 13:06 | 73.95685 | -11.66515 | 39378 ft | 516 kts | 148° |
| 2026-05-05 13:07 | 73.89516 | -11.53432 | 39382 ft | 515 kts | 148° |
| 2026-05-05 13:07 | 73.83303 | -11.40354 | 39380 ft | 518 kts | 148° |
| 2026-05-05 13:08 | 73.77102 | -11.27423 | 39365 ft | 514 kts | 148° |
| 2026-05-05 13:08 | 73.71963 | -11.16795 | 39365 ft | 513 kts | 148° |
| 2026-05-05 13:09 | 73.65753 | -11.04059 | 39363 ft | 517 kts | 148° |
| 2026-05-05 13:09 | 73.59497 | -10.91330 | 39349 ft | 517 kts | 149° |
| 2026-05-05 13:10 | 73.53272 | -10.78781 | 39355 ft | 516 kts | 148° |
| 2026-05-05 13:10 | 73.47011 | -10.66254 | 39346 ft | 518 kts | 149° |
| 2026-05-05 13:11 | 73.40789 | -10.53920 | 39330 ft | 512 kts | 149° |
| 2026-05-05 13:11 | 73.34587 | -10.41726 | 39334 ft | 513 kts | 149° |
| 2026-05-05 13:12 | 73.28325 | -10.29511 | 39334 ft | 518 kts | 149° |
| 2026-05-05 13:12 | 73.22076 | -10.17432 | 39317 ft | 516 kts | 149° |
| 2026-05-05 13:13 | 73.15789 | -10.05378 | 39323 ft | 518 kts | 149° |
| 2026-05-05 13:13 | 73.09491 | -9.93409 | 39310 ft | 516 kts | 150° |
| 2026-05-05 13:14 | 73.03196 | -9.81540 | 39306 ft | 517 kts | 150° |
| 2026-05-05 13:14 | 72.96879 | -9.69722 | 39303 ft | 518 kts | 149° |
| 2026-05-05 13:15 | 72.90549 | -9.57977 | 39296 ft | 517 kts | 149° |
| 2026-05-05 13:15 | 72.84227 | -9.46357 | 39297 ft | 517 kts | 150° |
| 2026-05-05 13:16 | 72.77885 | -9.34790 | 39284 ft | 519 kts | 150° |
| 2026-05-05 13:16 | 72.71533 | -9.23294 | 39277 ft | 518 kts | 150° |
| 2026-05-05 13:17 | 72.65173 | -9.11878 | 39280 ft | 520 kts | 150° |
| 2026-05-05 13:17 | 72.58828 | -9.00589 | 39264 ft | 513 kts | 150° |
| 2026-05-05 13:18 | 72.52499 | -8.89412 | 39279 ft | 517 kts | 150° |
| 2026-05-05 13:18 | 72.46117 | -8.78231 | 39265 ft | 518 kts | 151° |
| 2026-05-05 13:19 | 72.39754 | -8.67168 | 39257 ft | 517 kts | 151° |
| 2026-05-05 13:19 | 72.33357 | -8.56133 | 39254 ft | 519 kts | 151° |
| 2026-05-05 13:20 | 72.26970 | -8.45209 | 39248 ft | 516 kts | 151° |
| 2026-05-05 13:20 | 72.20581 | -8.34368 | 39254 ft | 519 kts | 151° |
| 2026-05-05 13:21 | 72.14180 | -8.23592 | 39233 ft | 514 kts | 151° |
| 2026-05-05 13:21 | 72.07837 | -8.12990 | 39245 ft | 514 kts | 151° |
| 2026-05-05 13:22 | 72.01429 | -8.02356 | 39237 ft | 518 kts | 151° |
| 2026-05-05 13:22 | 71.95096 | -7.91510 | 39228 ft | 513 kts | 149° |
| 2026-05-05 13:23 | 71.88912 | -7.80184 | 39226 ft | 517 kts | 148° |
| 2026-05-05 13:23 | 71.82665 | -7.68768 | 39217 ft | 516 kts | 149° |
| 2026-05-05 13:24 | 71.76413 | -7.57558 | 39219 ft | 516 kts | 149° |
| 2026-05-05 13:24 | 71.70134 | -7.46463 | 39212 ft | 516 kts | 149° |
| 2026-05-05 13:25 | 71.63836 | -7.35440 | 39207 ft | 517 kts | 149° |
| 2026-05-05 13:25 | 71.57543 | -7.24490 | 39200 ft | 514 kts | 150° |
| 2026-05-05 13:26 | 71.51282 | -7.13670 | 39205 ft | 515 kts | 149° |
| 2026-05-05 13:26 | 71.44970 | -7.02859 | 39198 ft | 517 kts | 150° |
| 2026-05-05 13:27 | 71.38672 | -6.92147 | 39197 ft | 513 kts | 150° |
| 2026-05-05 13:27 | 71.32368 | -6.81496 | 39190 ft | 518 kts | 150° |
| 2026-05-05 13:28 | 71.26033 | -6.70874 | 39165 ft | 512 kts | 150° |
| 2026-05-05 13:28 | 71.19770 | -6.60466 | 39164 ft | 509 kts | 150° |
| 2026-05-05 13:29 | 71.13536 | -6.50166 | 39182 ft | 508 kts | 150° |
| 2026-05-05 13:29 | 71.07347 | -6.40018 | 39156 ft | 507 kts | 150° |
| 2026-05-05 13:30 | 71.01118 | -6.29889 | 39154 ft | 506 kts | 151° |
| 2026-05-05 13:30 | 70.94896 | -6.19827 | 39148 ft | 505 kts | 150° |
| 2026-05-05 13:31 | 70.88678 | -6.09844 | 39146 ft | 504 kts | 150° |
| 2026-05-05 13:31 | 70.82475 | -5.99967 | 39141 ft | 501 kts | 150° |
| 2026-05-05 13:32 | 70.76321 | -5.90229 | 39140 ft | 496 kts | 151° |
| 2026-05-05 13:32 | 70.70163 | -5.80552 | 39157 ft | 501 kts | 151° |
| 2026-05-05 13:33 | 70.63994 | -5.70934 | 39134 ft | 498 kts | 151° |
| 2026-05-05 13:33 | 70.57812 | -5.61357 | 39125 ft | 501 kts | 151° |
| 2026-05-05 13:34 | 70.51604 | -5.51801 | 39119 ft | 502 kts | 151° |
| 2026-05-05 13:34 | 70.45400 | -5.42329 | 39108 ft | 496 kts | 151° |
| 2026-05-05 13:35 | 70.39237 | -5.32971 | 39116 ft | 500 kts | 151° |
| 2026-05-05 13:35 | 70.33014 | -5.23592 | 39103 ft | 501 kts | 151° |
| 2026-05-05 13:36 | 70.26841 | -5.14352 | 39106 ft | 499 kts | 152° |
| 2026-05-05 13:36 | 70.20655 | -5.05157 | 39094 ft | 499 kts | 152° |
| 2026-05-05 13:37 | 70.14467 | -4.96020 | 39095 ft | 501 kts | 152° |
| 2026-05-05 13:37 | 70.08200 | -4.86824 | 39422 ft | 502 kts | 152° |
| 2026-05-05 13:38 | 70.05080 | -4.82270 | 39681 ft | 501 kts | 152° |
| 2026-05-05 13:38 | 70.01972 | -4.77752 | 40012 ft | 498 kts | 152° |
| 2026-05-05 13:38 | 69.98872 | -4.73259 | 40291 ft | 497 kts | 152° |
| 2026-05-05 13:38 | 69.95781 | -4.68793 | 40554 ft | 495 kts | 152° |
| 2026-05-05 13:39 | 69.89566 | -4.59859 | 40834 ft | 499 kts | 152° |
| 2026-05-05 13:39 | 69.86459 | -4.55413 | 40974 ft | 499 kts | 152° |
| 2026-05-05 13:39 | 69.83339 | -4.50964 | 41011 ft | 500 kts | 152° |
| 2026-05-05 13:40 | 69.77083 | -4.42089 | 41040 ft | 500 kts | 153° |
| 2026-05-05 13:40 | 69.70879 | -4.33347 | 41044 ft | 494 kts | 153° |
| 2026-05-05 13:41 | 69.64658 | -4.24634 | 41050 ft | 499 kts | 153° |
| 2026-05-05 13:41 | 69.58407 | -4.15938 | 41034 ft | 499 kts | 153° |
| 2026-05-05 13:42 | 69.52177 | -4.07335 | 41025 ft | 496 kts | 153° |
| 2026-05-05 13:42 | 69.45930 | -3.98758 | 41036 ft | 502 kts | 153° |
| 2026-05-05 13:43 | 69.39600 | -3.90121 | 41028 ft | 507 kts | 153° |
| 2026-05-05 13:43 | 69.33210 | -3.81462 | 41023 ft | 511 kts | 153° |
| 2026-05-05 13:44 | 69.26770 | -3.72795 | 41015 ft | 514 kts | 153° |
| 2026-05-05 13:44 | 69.20297 | -3.64140 | 41002 ft | 516 kts | 154° |
| 2026-05-05 13:45 | 69.13813 | -3.55528 | 40994 ft | 515 kts | 154° |
| 2026-05-05 13:45 | 69.07315 | -3.46954 | 40989 ft | 516 kts | 154° |
| 2026-05-05 13:46 | 69.00823 | -3.38444 | 40985 ft | 516 kts | 154° |
| 2026-05-05 13:46 | 68.94313 | -3.29965 | 40974 ft | 516 kts | 154° |
| 2026-05-05 13:47 | 68.87802 | -3.21541 | 40969 ft | 515 kts | 154° |
| 2026-05-05 13:47 | 68.81296 | -3.13176 | 40965 ft | 516 kts | 154° |
| 2026-05-05 13:48 | 68.74775 | -3.04849 | 40964 ft | 515 kts | 154° |
| 2026-05-05 13:48 | 68.68271 | -2.96597 | 40955 ft | 516 kts | 154° |
| 2026-05-05 13:49 | 68.61742 | -2.88367 | 40946 ft | 515 kts | 155° |
| 2026-05-05 13:49 | 68.55217 | -2.80192 | 40948 ft | 517 kts | 155° |
| 2026-05-05 13:50 | 68.48688 | -2.72065 | 40927 ft | 511 kts | 155° |
| 2026-05-05 13:50 | 68.42242 | -2.64094 | 40931 ft | 514 kts | 155° |
| 2026-05-05 13:51 | 68.35705 | -2.56061 | 40924 ft | 517 kts | 155° |
| 2026-05-05 13:51 | 68.29169 | -2.48076 | 40919 ft | 514 kts | 155° |
| 2026-05-05 13:52 | 68.22631 | -2.40142 | 40915 ft | 517 kts | 155° |
| 2026-05-05 13:52 | 68.16076 | -2.32237 | 40911 ft | 515 kts | 155° |
| 2026-05-05 13:53 | 68.09537 | -2.24401 | 40909 ft | 515 kts | 155° |
| 2026-05-05 13:53 | 68.02982 | -2.16593 | 40899 ft | 516 kts | 156° |
| 2026-05-05 13:54 | 67.96408 | -2.08814 | 40900 ft | 518 kts | 156° |
| 2026-05-05 13:54 | 67.89839 | -2.01086 | 40898 ft | 516 kts | 156° |
| 2026-05-05 13:55 | 67.83273 | -1.93411 | 40888 ft | 514 kts | 156° |
| 2026-05-05 13:55 | 67.76745 | -1.85827 | 40889 ft | 512 kts | 156° |
| 2026-05-05 13:56 | 67.70200 | -1.78271 | 40886 ft | 514 kts | 156° |
| 2026-05-05 13:56 | 67.63653 | -1.70756 | 40879 ft | 512 kts | 156° |
| 2026-05-05 13:57 | 67.58226 | -1.64563 | 40887 ft | 512 kts | 156° |
| 2026-05-05 13:57 | 67.51687 | -1.57141 | 40883 ft | 512 kts | 156° |
| 2026-05-05 13:58 | 67.45151 | -1.49767 | 40881 ft | 511 kts | 157° |
| 2026-05-05 13:58 | 67.38609 | -1.42430 | 40881 ft | 512 kts | 157° |
| 2026-05-05 13:59 | 67.28813 | -1.31525 | 40878 ft | 508 kts | 157° |
| 2026-05-05 14:00 | 67.19097 | -1.20805 | 40871 ft | 503 kts | 157° |
| 2026-05-05 14:00 | 67.12674 | -1.13770 | 40872 ft | 500 kts | 157° |
| 2026-05-05 14:01 | 67.06282 | -1.06805 | 40868 ft | 498 kts | 158° |
| 2026-05-05 14:01 | 66.99889 | -0.99918 | 40872 ft | 498 kts | 159° |
| 2026-05-05 14:02 | 66.93344 | -0.94161 | 40875 ft | 497 kts | 162° |
| 2026-05-05 14:02 | 66.86769 | -0.88668 | 40867 ft | 498 kts | 162° |
| 2026-05-05 14:03 | 66.80231 | -0.83196 | 40875 ft | 499 kts | 162° |
| 2026-05-05 14:03 | 66.73562 | -0.77598 | 40883 ft | 505 kts | 162° |
| 2026-05-05 14:04 | 66.66913 | -0.72032 | 40871 ft | 509 kts | 162° |
| 2026-05-05 14:04 | 66.60176 | -0.66421 | 40867 ft | 510 kts | 162° |
| 2026-05-05 14:05 | 66.53431 | -0.60840 | 40863 ft | 510 kts | 162° |
| 2026-05-05 14:05 | 66.46697 | -0.55302 | 40863 ft | 508 kts | 162° |
| 2026-05-05 14:06 | 66.39988 | -0.49816 | 40860 ft | 506 kts | 163° |
| 2026-05-05 14:06 | 66.33302 | -0.44379 | 40862 ft | 504 kts | 163° |
| 2026-05-05 14:07 | 66.26645 | -0.38996 | 40865 ft | 502 kts | 163° |
| 2026-05-05 14:07 | 66.20004 | -0.33656 | 40866 ft | 501 kts | 163° |
| 2026-05-05 14:08 | 66.13376 | -0.28356 | 40867 ft | 500 kts | 163° |
| 2026-05-05 14:08 | 66.06752 | -0.23088 | 40868 ft | 500 kts | 163° |
| 2026-05-05 14:09 | 66.00119 | -0.17842 | 40870 ft | 501 kts | 163° |
| 2026-05-05 14:09 | 65.93480 | -0.12619 | 40874 ft | 502 kts | 163° |
| 2026-05-05 14:10 | 65.86822 | -0.07410 | 40874 ft | 503 kts | 163° |
| 2026-05-05 14:10 | 65.80149 | -0.02219 | 40878 ft | 504 kts | 163° |
| 2026-05-05 14:11 | 65.73467 | 0.02952 | 40880 ft | 505 kts | 164° |
| 2026-05-05 14:11 | 65.66765 | 0.08111 | 40882 ft | 505 kts | 164° |
| 2026-05-05 14:12 | 65.60060 | 0.13244 | 40887 ft | 506 kts | 164° |
| 2026-05-05 14:12 | 65.53347 | 0.18355 | 40884 ft | 506 kts | 164° |
| 2026-05-05 14:13 | 65.46630 | 0.23442 | 40885 ft | 506 kts | 164° |
| 2026-05-05 14:13 | 65.39957 | 0.28468 | 40892 ft | 506 kts | 164° |
| 2026-05-05 14:14 | 65.33195 | 0.33534 | 40895 ft | 505 kts | 164° |
| 2026-05-05 14:14 | 65.26531 | 0.38500 | 40895 ft | 505 kts | 164° |
| 2026-05-05 14:15 | 65.19821 | 0.43473 | 40894 ft | 505 kts | 164° |
| 2026-05-05 14:15 | 65.13116 | 0.48417 | 40897 ft | 504 kts | 164° |
| 2026-05-05 14:16 | 65.06409 | 0.53336 | 40899 ft | 504 kts | 164° |
| 2026-05-05 14:16 | 64.99710 | 0.58224 | 40898 ft | 504 kts | 165° |
| 2026-05-05 14:17 | 64.93007 | 0.63088 | 40903 ft | 504 kts | 165° |
| 2026-05-05 14:17 | 64.86311 | 0.67922 | 40905 ft | 504 kts | 165° |
| 2026-05-05 14:18 | 64.79609 | 0.72735 | 40905 ft | 503 kts | 165° |
| 2026-05-05 14:18 | 64.72905 | 0.77525 | 40909 ft | 503 kts | 165° |
| 2026-05-05 14:19 | 64.66206 | 0.82287 | 40906 ft | 504 kts | 165° |
| 2026-05-05 14:19 | 64.59494 | 0.87032 | 40908 ft | 504 kts | 165° |
| 2026-05-05 14:20 | 64.52786 | 0.91751 | 40907 ft | 504 kts | 165° |
| 2026-05-05 14:20 | 64.46072 | 0.96450 | 40911 ft | 504 kts | 165° |
| 2026-05-05 14:21 | 64.39356 | 1.01126 | 40913 ft | 504 kts | 165° |
| 2026-05-05 14:21 | 64.32681 | 1.05751 | 40919 ft | 504 kts | 165° |
| 2026-05-05 14:22 | 64.25956 | 1.10385 | 40919 ft | 504 kts | 165° |
| 2026-05-05 14:22 | 64.19231 | 1.14997 | 40923 ft | 504 kts | 166° |
| 2026-05-05 14:23 | 64.12502 | 1.19588 | 40924 ft | 505 kts | 166° |
| 2026-05-05 14:23 | 64.05772 | 1.24157 | 40933 ft | 505 kts | 166° |
| 2026-05-05 14:24 | 63.99039 | 1.28704 | 40928 ft | 505 kts | 166° |
| 2026-05-05 14:24 | 63.92305 | 1.33230 | 40915 ft | 505 kts | 166° |
| 2026-05-05 14:25 | 63.85567 | 1.37735 | 40932 ft | 504 kts | 166° |
| 2026-05-05 14:25 | 63.78834 | 1.42215 | 40926 ft | 504 kts | 166° |
| 2026-05-05 14:26 | 63.72101 | 1.46672 | 40922 ft | 504 kts | 166° |
| 2026-05-05 14:26 | 63.65369 | 1.51107 | 40932 ft | 504 kts | 166° |
| 2026-05-05 14:27 | 63.58641 | 1.55518 | 40930 ft | 504 kts | 166° |
| 2026-05-05 14:27 | 63.51912 | 1.59907 | 40934 ft | 504 kts | 166° |
| 2026-05-05 14:28 | 63.45185 | 1.64274 | 40938 ft | 503 kts | 166° |
| 2026-05-05 14:28 | 63.38454 | 1.68622 | 40940 ft | 503 kts | 166° |
| 2026-05-05 14:29 | 63.31768 | 1.72920 | 40943 ft | 503 kts | 166° |
| 2026-05-05 14:29 | 63.25042 | 1.77225 | 40943 ft | 503 kts | 166° |
| 2026-05-05 14:30 | 63.18310 | 1.81493 | 40945 ft | 503 kts | 168° |
| 2026-05-05 14:30 | 63.11480 | 1.84557 | 40943 ft | 500 kts | 173° |
| 2026-05-05 14:31 | 63.04625 | 1.87189 | 40945 ft | 500 kts | 173° |
| 2026-05-05 14:31 | 62.97770 | 1.89837 | 40945 ft | 500 kts | 173° |
| 2026-05-05 14:32 | 62.90923 | 1.92522 | 40949 ft | 500 kts | 173° |
| 2026-05-05 14:32 | 62.84067 | 1.95220 | 40957 ft | 500 kts | 173° |
| 2026-05-05 14:33 | 62.77218 | 1.97904 | 40957 ft | 500 kts | 173° |
| 2026-05-05 14:33 | 62.70364 | 2.00574 | 40956 ft | 500 kts | 173° |
| 2026-05-05 14:34 | 62.63506 | 2.03231 | 40964 ft | 500 kts | 173° |
| 2026-05-05 14:34 | 62.56652 | 2.05873 | 40960 ft | 500 kts | 173° |
| 2026-05-05 14:35 | 62.49793 | 2.08505 | 40958 ft | 500 kts | 173° |
| 2026-05-05 14:35 | 62.42936 | 2.11124 | 40968 ft | 500 kts | 173° |
| 2026-05-05 14:36 | 62.36077 | 2.13733 | 40967 ft | 500 kts | 173° |
| 2026-05-05 14:36 | 62.29227 | 2.16325 | 40971 ft | 500 kts | 173° |
| 2026-05-05 14:37 | 62.22370 | 2.18908 | 40973 ft | 500 kts | 173° |
| 2026-05-05 14:37 | 62.15520 | 2.21477 | 40975 ft | 500 kts | 174° |
| 2026-05-05 14:38 | 62.08670 | 2.24034 | 40974 ft | 500 kts | 174° |
| 2026-05-05 14:38 | 62.01870 | 2.26561 | 40974 ft | 499 kts | 174° |
| 2026-05-05 14:39 | 61.95023 | 2.29093 | 40979 ft | 499 kts | 174° |
| 2026-05-05 14:39 | 61.88179 | 2.31613 | 40970 ft | 499 kts | 174° |
| 2026-05-05 14:40 | 61.81337 | 2.34121 | 40969 ft | 499 kts | 174° |
| 2026-05-05 14:40 | 61.74495 | 2.36617 | 40968 ft | 499 kts | 174° |
| 2026-05-05 14:41 | 61.67652 | 2.39103 | 40961 ft | 499 kts | 174° |
| 2026-05-05 14:41 | 61.60811 | 2.41577 | 40963 ft | 499 kts | 174° |
| 2026-05-05 14:42 | 61.53976 | 2.44037 | 40964 ft | 498 kts | 174° |
| 2026-05-05 14:42 | 61.47143 | 2.46486 | 40964 ft | 498 kts | 174° |
| 2026-05-05 14:43 | 61.40311 | 2.48924 | 40971 ft | 498 kts | 174° |
| 2026-05-05 14:43 | 61.33485 | 2.51349 | 40973 ft | 497 kts | 174° |
| 2026-05-05 14:44 | 61.26661 | 2.53762 | 40970 ft | 497 kts | 174° |
| 2026-05-05 14:44 | 61.19842 | 2.56163 | 40979 ft | 497 kts | 174° |
| 2026-05-05 14:45 | 61.13027 | 2.58552 | 40983 ft | 497 kts | 174° |
| 2026-05-05 14:45 | 61.07363 | 2.60529 | 40981 ft | 497 kts | 174° |
| 2026-05-05 14:46 | 61.00551 | 2.62898 | 40979 ft | 496 kts | 174° |
| 2026-05-05 14:46 | 60.93744 | 2.65254 | 40981 ft | 496 kts | 174° |
| 2026-05-05 14:47 | 60.86933 | 2.67603 | 40983 ft | 496 kts | 174° |
| 2026-05-05 14:47 | 60.80118 | 2.69942 | 40981 ft | 496 kts | 174° |
| 2026-05-05 14:48 | 60.73314 | 2.72268 | 40985 ft | 496 kts | 175° |
| 2026-05-05 14:48 | 60.66550 | 2.74570 | 40982 ft | 496 kts | 175° |
| 2026-05-05 14:49 | 60.59744 | 2.76876 | 40986 ft | 496 kts | 175° |
| 2026-05-05 14:49 | 60.52933 | 2.79174 | 40981 ft | 496 kts | 175° |
| 2026-05-05 14:50 | 60.46128 | 2.81461 | 40983 ft | 496 kts | 175° |
| 2026-05-05 14:50 | 60.39323 | 2.83738 | 40991 ft | 495 kts | 175° |
| 2026-05-05 14:51 | 60.32522 | 2.86003 | 40991 ft | 495 kts | 175° |
| 2026-05-05 14:51 | 60.25721 | 2.88260 | 41003 ft | 495 kts | 175° |
| 2026-05-05 14:52 | 60.18925 | 2.90505 | 41003 ft | 495 kts | 175° |
| 2026-05-05 14:52 | 60.12131 | 2.92739 | 41010 ft | 495 kts | 175° |
| 2026-05-05 14:53 | 60.05335 | 2.94966 | 41019 ft | 495 kts | 175° |
| 2026-05-05 14:53 | 59.98545 | 2.97181 | 41019 ft | 495 kts | 175° |
| 2026-05-05 14:54 | 59.91749 | 2.99389 | 41024 ft | 495 kts | 175° |
| 2026-05-05 14:54 | 59.84959 | 3.01586 | 41027 ft | 494 kts | 175° |
| 2026-05-05 14:55 | 59.78211 | 3.03760 | 41023 ft | 495 kts | 175° |
| 2026-05-05 14:55 | 59.71419 | 3.05939 | 41032 ft | 495 kts | 175° |
| 2026-05-05 14:56 | 59.64619 | 3.08112 | 41031 ft | 495 kts | 175° |
| 2026-05-05 14:56 | 59.57820 | 3.10276 | 41029 ft | 495 kts | 175° |
| 2026-05-05 14:57 | 59.51016 | 3.12433 | 41028 ft | 495 kts | 175° |
| 2026-05-05 14:57 | 59.44213 | 3.14580 | 41028 ft | 495 kts | 175° |
| 2026-05-05 14:58 | 59.37411 | 3.16719 | 41031 ft | 495 kts | 175° |
| 2026-05-05 14:58 | 59.30615 | 3.18847 | 41032 ft | 495 kts | 175° |
| 2026-05-05 14:59 | 59.23813 | 3.20968 | 41031 ft | 495 kts | 175° |
| 2026-05-05 14:59 | 59.17021 | 3.23077 | 41033 ft | 494 kts | 175° |
| 2026-05-05 15:00 | 59.11374 | 3.24825 | 41038 ft | 494 kts | 175° |
| 2026-05-05 15:00 | 59.03437 | 3.27271 | 41039 ft | 494 kts | 175° |
| 2026-05-05 15:01 | 58.96654 | 3.29353 | 41039 ft | 493 kts | 175° |
| 2026-05-05 15:01 | 58.89874 | 3.31425 | 41041 ft | 493 kts | 175° |
| 2026-05-05 15:02 | 58.83095 | 3.33488 | 41045 ft | 493 kts | 175° |
| 2026-05-05 15:02 | 58.76366 | 3.35529 | 41037 ft | 493 kts | 175° |
| 2026-05-05 15:03 | 58.69548 | 3.37588 | 41036 ft | 493 kts | 175° |
| 2026-05-05 15:03 | 58.62773 | 3.39626 | 41046 ft | 493 kts | 175° |
| 2026-05-05 15:04 | 58.55999 | 3.41656 | 41036 ft | 493 kts | 175° |
| 2026-05-05 15:04 | 58.49273 | 3.43664 | 41035 ft | 492 kts | 175° |
| 2026-05-05 15:05 | 58.39123 | 3.46680 | 41039 ft | 492 kts | 175° |
| 2026-05-05 15:06 | 58.32356 | 3.48681 | 41050 ft | 492 kts | 175° |
| 2026-05-05 15:06 | 58.25604 | 3.50669 | 41043 ft | 491 kts | 175° |
| 2026-05-05 15:07 | 58.18846 | 3.52651 | 41045 ft | 491 kts | 175° |
| 2026-05-05 15:07 | 58.12102 | 3.54623 | 41042 ft | 490 kts | 175° |
| 2026-05-05 15:08 | 58.05369 | 3.56583 | 41044 ft | 489 kts | 175° |
| 2026-05-05 15:08 | 57.98638 | 3.58535 | 41042 ft | 489 kts | 175° |
| 2026-05-05 15:09 | 57.91918 | 3.60475 | 41040 ft | 488 kts | 176° |
| 2026-05-05 15:09 | 57.85187 | 3.61535 | 41044 ft | 484 kts | 181° |
| 2026-05-05 15:10 | 57.78460 | 3.62179 | 41042 ft | 484 kts | 181° |
| 2026-05-05 15:10 | 57.71726 | 3.62840 | 41044 ft | 484 kts | 181° |
| 2026-05-05 15:11 | 57.64993 | 3.63541 | 41043 ft | 485 kts | 181° |
| 2026-05-05 15:11 | 57.58259 | 3.64255 | 41042 ft | 485 kts | 181° |
| 2026-05-05 15:12 | 57.51516 | 3.64969 | 41040 ft | 485 kts | 181° |
| 2026-05-05 15:12 | 57.44777 | 3.65677 | 41038 ft | 485 kts | 181° |
| 2026-05-05 15:13 | 57.38036 | 3.66381 | 41039 ft | 485 kts | 181° |
| 2026-05-05 15:13 | 57.31338 | 3.67079 | 41036 ft | 485 kts | 181° |
| 2026-05-05 15:14 | 57.24602 | 3.67778 | 41036 ft | 485 kts | 181° |
| 2026-05-05 15:14 | 57.17871 | 3.68474 | 41033 ft | 484 kts | 181° |
| 2026-05-05 15:15 | 57.11097 | 3.69171 | 41026 ft | 484 kts | 180° |
| 2026-05-05 15:15 | 57.04379 | 3.69861 | 41041 ft | 484 kts | 180° |
| 2026-05-05 15:16 | 56.97699 | 3.70544 | 41031 ft | 483 kts | 180° |
| 2026-05-05 15:16 | 56.90989 | 3.71227 | 41022 ft | 483 kts | 180° |
| 2026-05-05 15:17 | 56.84286 | 3.71908 | 41021 ft | 483 kts | 180° |
| 2026-05-05 15:17 | 56.77574 | 3.72587 | 41013 ft | 482 kts | 180° |
| 2026-05-05 15:18 | 56.70876 | 3.73243 | 41007 ft | 481 kts | 182° |
| 2026-05-05 15:18 | 56.64211 | 3.72955 | 41003 ft | 478 kts | 186° |
| 2026-05-05 15:19 | 56.57562 | 3.72383 | 41001 ft | 478 kts | 186° |
| 2026-05-05 15:19 | 56.50915 | 3.71834 | 40999 ft | 478 kts | 186° |
| 2026-05-05 15:20 | 56.44269 | 3.71322 | 40993 ft | 478 kts | 186° |
| 2026-05-05 15:20 | 56.37617 | 3.70828 | 40990 ft | 478 kts | 186° |
| 2026-05-05 15:21 | 56.30963 | 3.70337 | 40983 ft | 478 kts | 186° |
| 2026-05-05 15:21 | 56.24319 | 3.69847 | 40983 ft | 478 kts | 186° |
| 2026-05-05 15:22 | 56.17669 | 3.69357 | 40975 ft | 478 kts | 186° |
| 2026-05-05 15:22 | 56.11019 | 3.68868 | 40966 ft | 478 kts | 186° |
| 2026-05-05 15:23 | 56.04382 | 3.68382 | 40962 ft | 477 kts | 186° |
| 2026-05-05 15:23 | 55.97748 | 3.67898 | 40965 ft | 476 kts | 186° |
| 2026-05-05 15:24 | 55.91176 | 3.67421 | 40962 ft | 476 kts | 185° |
| 2026-05-05 15:24 | 55.84562 | 3.66941 | 40960 ft | 475 kts | 185° |
| 2026-05-05 15:25 | 55.77954 | 3.66464 | 40962 ft | 475 kts | 185° |
| 2026-05-05 15:25 | 55.71352 | 3.65989 | 40963 ft | 474 kts | 185° |
| 2026-05-05 15:26 | 55.64760 | 3.65516 | 40964 ft | 474 kts | 185° |
| 2026-05-05 15:26 | 55.58170 | 3.65044 | 40968 ft | 474 kts | 185° |
| 2026-05-05 15:27 | 55.51588 | 3.64575 | 40964 ft | 473 kts | 185° |
| 2026-05-05 15:27 | 55.45004 | 3.64108 | 40964 ft | 473 kts | 185° |
| 2026-05-05 15:28 | 55.38423 | 3.63642 | 40967 ft | 473 kts | 185° |
| 2026-05-05 15:28 | 55.31846 | 3.63178 | 40968 ft | 473 kts | 185° |
| 2026-05-05 15:29 | 55.25262 | 3.62715 | 40965 ft | 473 kts | 185° |
| 2026-05-05 15:29 | 55.18680 | 3.62253 | 40970 ft | 474 kts | 185° |
| 2026-05-05 15:30 | 55.12088 | 3.61793 | 40979 ft | 474 kts | 185° |
| 2026-05-05 15:30 | 55.05496 | 3.61334 | 40973 ft | 474 kts | 185° |
| 2026-05-05 15:31 | 54.98902 | 3.60876 | 40973 ft | 474 kts | 185° |
| 2026-05-05 15:31 | 54.92300 | 3.60420 | 40977 ft | 475 kts | 185° |
| 2026-05-05 15:32 | 54.85701 | 3.59965 | 40974 ft | 475 kts | 185° |
| 2026-05-05 15:32 | 54.79145 | 3.59515 | 40977 ft | 475 kts | 185° |
| 2026-05-05 15:33 | 54.72542 | 3.59062 | 40979 ft | 475 kts | 185° |
| 2026-05-05 15:33 | 54.65937 | 3.58612 | 40976 ft | 475 kts | 185° |
| 2026-05-05 15:34 | 54.59334 | 3.58162 | 40973 ft | 475 kts | 185° |
| 2026-05-05 15:34 | 54.52728 | 3.57714 | 40981 ft | 475 kts | 185° |
| 2026-05-05 15:35 | 54.46130 | 3.57268 | 40982 ft | 475 kts | 185° |
| 2026-05-05 15:35 | 54.39529 | 3.56823 | 40983 ft | 475 kts | 185° |
| 2026-05-05 15:36 | 54.34043 | 3.56455 | 40983 ft | 475 kts | 185° |
| 2026-05-05 15:36 | 54.27443 | 3.56013 | 40983 ft | 474 kts | 185° |
| 2026-05-05 15:37 | 54.20849 | 3.55572 | 40986 ft | 474 kts | 185° |
| 2026-05-05 15:37 | 54.14251 | 3.55133 | 40989 ft | 474 kts | 185° |
| 2026-05-05 15:38 | 54.07658 | 3.54696 | 40982 ft | 474 kts | 185° |
| 2026-05-05 15:38 | 54.01060 | 3.54260 | 40978 ft | 474 kts | 185° |
| 2026-05-05 15:39 | 53.94425 | 3.53820 | 40136 ft | 482 kts | 184° |
| 2026-05-05 15:39 | 53.91081 | 3.53600 | 39442 ft | 480 kts | 184° |
| 2026-05-05 15:39 | 53.87749 | 3.53383 | 38666 ft | 479 kts | 184° |
| 2026-05-05 15:39 | 53.84416 | 3.53165 | 37690 ft | 479 kts | 184° |
| 2026-05-05 15:40 | 53.81101 | 3.52948 | 36797 ft | 476 kts | 184° |
| 2026-05-05 15:40 | 53.77801 | 3.52733 | 35923 ft | 474 kts | 184° |
| 2026-05-05 15:40 | 53.74512 | 3.52519 | 34939 ft | 473 kts | 184° |
| 2026-05-05 15:40 | 53.71217 | 3.52303 | 33909 ft | 474 kts | 185° |
| 2026-05-05 15:41 | 53.67921 | 3.52089 | 32675 ft | 474 kts | 185° |
| 2026-05-05 15:41 | 53.64631 | 3.51876 | 31493 ft | 473 kts | 185° |
| 2026-05-05 15:41 | 53.61345 | 3.51737 | 30477 ft | 470 kts | 183° |
| 2026-05-05 15:41 | 53.58107 | 3.52007 | 29626 ft | 464 kts | 178° |
| 2026-05-05 15:42 | 53.54934 | 3.52741 | 28723 ft | 457 kts | 175° |
| 2026-05-05 15:42 | 53.51813 | 3.53500 | 27911 ft | 449 kts | 175° |
| 2026-05-05 15:42 | 53.48740 | 3.54218 | 27112 ft | 443 kts | 176° |
| 2026-05-05 15:42 | 53.45707 | 3.54902 | 26324 ft | 437 kts | 176° |
| 2026-05-05 15:43 | 53.42708 | 3.55569 | 25544 ft | 433 kts | 175° |
| 2026-05-05 15:43 | 53.39733 | 3.56231 | 24845 ft | 429 kts | 175° |
| 2026-05-05 15:43 | 53.36801 | 3.56999 | 24416 ft | 427 kts | 173° |
| 2026-05-05 15:43 | 53.33851 | 3.57866 | 23966 ft | 434 kts | 173° |
| 2026-05-05 15:44 | 53.30872 | 3.58771 | 23492 ft | 436 kts | 172° |
| 2026-05-05 15:44 | 53.27896 | 3.59677 | 22936 ft | 432 kts | 172° |
| 2026-05-05 15:44 | 53.24955 | 3.60563 | 22459 ft | 427 kts | 172° |
| 2026-05-05 15:44 | 53.22045 | 3.61427 | 22003 ft | 423 kts | 172° |
| 2026-05-05 15:45 | 53.19162 | 3.62272 | 21524 ft | 419 kts | 172° |
| 2026-05-05 15:45 | 53.16300 | 3.63105 | 21090 ft | 416 kts | 172° |
| 2026-05-05 15:45 | 53.13493 | 3.63919 | 20655 ft | 414 kts | 172° |
| 2026-05-05 15:45 | 53.10661 | 3.64737 | 20226 ft | 412 kts | 172° |
| 2026-05-05 15:46 | 53.07845 | 3.65550 | 19775 ft | 410 kts | 172° |
| 2026-05-05 15:46 | 53.05034 | 3.66361 | 19342 ft | 409 kts | 172° |
| 2026-05-05 15:46 | 53.02236 | 3.67168 | 18901 ft | 408 kts | 172° |
| 2026-05-05 15:46 | 52.99443 | 3.67972 | 18472 ft | 407 kts | 172° |
| 2026-05-05 15:47 | 52.96655 | 3.68774 | 18004 ft | 405 kts | 172° |
| 2026-05-05 15:47 | 52.93886 | 3.69569 | 17526 ft | 403 kts | 172° |
| 2026-05-05 15:47 | 52.91128 | 3.70361 | 17079 ft | 401 kts | 172° |
| 2026-05-05 15:47 | 52.88393 | 3.71145 | 16643 ft | 398 kts | 172° |
| 2026-05-05 15:48 | 52.85675 | 3.71925 | 16214 ft | 395 kts | 172° |
| 2026-05-05 15:48 | 52.82976 | 3.72697 | 15793 ft | 392 kts | 172° |
| 2026-05-05 15:48 | 52.80291 | 3.73462 | 15375 ft | 390 kts | 172° |
| 2026-05-05 15:48 | 52.77620 | 3.74221 | 14961 ft | 389 kts | 172° |
| 2026-05-05 15:49 | 52.74960 | 3.74933 | 14551 ft | 387 kts | 174° |
| 2026-05-05 15:49 | 52.72295 | 3.75394 | 14129 ft | 385 kts | 176° |
| 2026-05-05 15:49 | 52.69625 | 3.75749 | 13718 ft | 384 kts | 177° |
| 2026-05-05 15:49 | 52.66971 | 3.76116 | 13262 ft | 382 kts | 176° |
| 2026-05-05 15:50 | 52.64329 | 3.76514 | 12829 ft | 380 kts | 176° |
| 2026-05-05 15:50 | 52.61705 | 3.76927 | 12446 ft | 375 kts | 175° |
| 2026-05-05 15:50 | 52.59207 | 3.77985 | 12103 ft | 375 kts | 155° |
| 2026-05-05 15:50 | 52.57116 | 3.80455 | 11766 ft | 363 kts | 135° |
| 2026-05-05 15:51 | 52.55697 | 3.83619 | 11346 ft | 329 kts | 117° |
| 2026-05-05 15:51 | 52.54854 | 3.86916 | 10985 ft | 299 kts | 111° |
| 2026-05-05 15:51 | 52.54120 | 3.90083 | 10685 ft | 295 kts | 111° |
| 2026-05-05 15:51 | 52.53381 | 3.93216 | 10372 ft | 293 kts | 111° |
| 2026-05-05 15:52 | 52.52632 | 3.96322 | 10065 ft | 290 kts | 113° |
| 2026-05-05 15:52 | 52.51641 | 3.99174 | 9720 ft | 288 kts | 125° |
| 2026-05-05 15:52 | 52.50449 | 4.01793 | 9363 ft | 286 kts | 128° |
| 2026-05-05 15:52 | 52.49219 | 4.04358 | 9018 ft | 285 kts | 128° |
| 2026-05-05 15:53 | 52.47997 | 4.06906 | 8694 ft | 283 kts | 128° |
| 2026-05-05 15:53 | 52.46807 | 4.09412 | 8361 ft | 282 kts | 127° |
| 2026-05-05 15:53 | 52.45616 | 4.11944 | 8052 ft | 279 kts | 127° |
| 2026-05-05 15:53 | 52.44440 | 4.14460 | 7728 ft | 277 kts | 127° |
| 2026-05-05 15:54 | 52.43277 | 4.16959 | 7416 ft | 274 kts | 127° |
| 2026-05-05 15:54 | 52.42127 | 4.19437 | 7108 ft | 272 kts | 127° |
| 2026-05-05 15:54 | 52.40986 | 4.21900 | 6788 ft | 270 kts | 127° |
| 2026-05-05 15:54 | 52.39854 | 4.24345 | 6483 ft | 269 kts | 127° |
| 2026-05-05 15:55 | 52.38761 | 4.26703 | 6165 ft | 267 kts | 126° |
| 2026-05-05 15:55 | 52.37643 | 4.29115 | 5839 ft | 265 kts | 126° |
| 2026-05-05 15:55 | 52.36450 | 4.31353 | 5512 ft | 259 kts | 141° |
| 2026-05-05 15:55 | 52.34911 | 4.32853 | 5245 ft | 256 kts | 150° |
| 2026-05-05 15:56 | 52.33333 | 4.34181 | 4970 ft | 254 kts | 151° |
| 2026-05-05 15:56 | 52.31765 | 4.35483 | 4709 ft | 252 kts | 151° |
| 2026-05-05 15:56 | 52.30212 | 4.36751 | 4453 ft | 248 kts | 152° |
| 2026-05-05 15:56 | 52.28732 | 4.37936 | 4259 ft | 224 kts | 151° |
| 2026-05-05 15:57 | 52.27349 | 4.39020 | 4093 ft | 221 kts | 150° |
| 2026-05-05 15:57 | 52.25967 | 4.40090 | 3906 ft | 216 kts | 150° |
| 2026-05-05 15:57 | 52.24632 | 4.41095 | 3791 ft | 210 kts | 151° |
| 2026-05-05 15:57 | 52.23377 | 4.42154 | 3646 ft | 193 kts | 135° |
| 2026-05-05 15:58 | 52.22689 | 4.43837 | 3615 ft | 175 kts | 107° |
| 2026-05-05 15:58 | 52.22262 | 4.45717 | 3513 ft | 176 kts | 106° |
| 2026-05-05 15:58 | 52.21817 | 4.47549 | 3361 ft | 171 kts | 107° |
| 2026-05-05 15:58 | 52.21378 | 4.49325 | 3211 ft | 167 kts | 107° |
| 2026-05-05 15:59 | 52.21031 | 4.51107 | 3081 ft | 163 kts | 91° |
| 2026-05-05 15:59 | 52.21278 | 4.52804 | 2967 ft | 149 kts | 62° |
| 2026-05-05 15:59 | 52.21718 | 4.54319 | 2791 ft | 145 kts | 62° |
| 2026-05-05 15:59 | 52.22141 | 4.55783 | 2584 ft | 139 kts | 62° |
| 2026-05-05 16:00 | 52.22574 | 4.57137 | 2417 ft | 128 kts | 58° |
| 2026-05-05 16:00 | 52.23012 | 4.58353 | 2242 ft | 121 kts | 57° |
| 2026-05-05 16:00 | 52.23463 | 4.59560 | 2074 ft | 125 kts | 56° |
| 2026-05-05 16:00 | 52.23927 | 4.60776 | 1908 ft | 127 kts | 55° |
| 2026-05-05 16:01 | 52.24389 | 4.61979 | 1754 ft | 126 kts | 54° |
| 2026-05-05 16:01 | 52.24849 | 4.63176 | 1576 ft | 124 kts | 54° |
| 2026-05-05 16:01 | 52.25315 | 4.64385 | 1365 ft | 125 kts | 55° |
| 2026-05-05 16:01 | 52.25768 | 4.65558 | 1226 ft | 126 kts | 56° |
| 2026-05-05 16:02 | 52.26233 | 4.66771 | 1038 ft | 123 kts | 54° |
| 2026-05-05 16:02 | 52.26682 | 4.67936 | 870 ft | 123 kts | 54° |
| 2026-05-05 16:02 | 52.27146 | 4.69145 | 699 ft | 125 kts | 55° |
| 2026-05-05 16:02 | 52.27600 | 4.70341 | 494 ft | 122 kts | 55° |
| 2026-05-05 16:03 | 52.28062 | 4.71526 | 339 ft | 124 kts | 55° |
| 2026-05-05 16:03 | 52.28515 | 4.72709 | 169 ft | 121 kts | 53° |
| 2026-05-05 16:03 | 52.28949 | 4.73844 | 29 ft | 116 kts | 55° |
| 2026-05-05 16:03 | 52.29350 | 4.74862 | 3 ft | 92 kts | 58° |
| 2026-05-05 16:04 | 52.29623 | 4.75575 | 3 ft | 56 kts | 58° |
| 2026-05-05 16:04 | 52.29808 | 4.76058 | 0 ft | 46 kts | 58° |
| 2026-05-05 16:04 | 52.29952 | 4.76432 | 1 ft | 24 kts | 57° |
| 2026-05-05 16:04 | 52.30077 | 4.76581 | 3 ft | 19 kts | 28° |
| 2026-05-05 16:05 | 52.30166 | 4.76659 | 3 ft | 14 kts | 28° |
| 2026-05-05 16:05 | 52.30255 | 4.76731 | 3 ft | 14 kts | 21° |
| 2026-05-05 16:05 | 52.30316 | 4.76836 | 3 ft | 10 kts | 59° |
| 2026-05-05 16:05 | 52.30353 | 4.76938 | 3 ft | 10 kts | 59° |
| 2026-05-05 16:06 | 52.30405 | 4.77066 | 3 ft | 17 kts | 57° |
| 2026-05-05 16:06 | 52.30469 | 4.77233 | 3 ft | 17 kts | 58° |
| 2026-05-05 16:06 | 52.30534 | 4.77401 | 3 ft | 17 kts | 58° |
| 2026-05-05 16:06 | 52.30605 | 4.77559 | 3 ft | 17 kts | 36° |
| 2026-05-05 16:07 | 52.30723 | 4.77594 | 3 ft | 17 kts | 4° |
| 2026-05-05 16:07 | 52.30843 | 4.77606 | 3 ft | 17 kts | 4° |
| 2026-05-05 16:07 | 52.30959 | 4.77617 | 3 ft | 15 kts | 3° |
| 2026-05-05 16:07 | 52.31035 | 4.77534 | 3 ft | 14 kts | 299° |
| 2026-05-05 16:08 | 52.31070 | 4.77391 | 3 ft | 14 kts | 274° |
| 2026-05-05 16:08 | 52.31075 | 4.77235 | 3 ft | 14 kts | 273° |
| 2026-05-05 16:08 | 52.31080 | 4.77083 | 3 ft | 12 kts | 273° |
| 2026-05-05 16:08 | 52.31086 | 4.76939 | 3 ft | 12 kts | 273° |
| 2026-05-05 16:09 | 52.31056 | 4.76851 | 3 ft | 5 kts | 206° |
| 2026-05-05 16:09 | 52.31020 | 4.76869 | 4 ft | 6 kts | 141° |
| 2026-05-05 16:09 | 52.31005 | 4.76889 | 3 ft | 4 kts | 139° |
| 2026-05-05 16:09 | 52.30983 | 4.76920 | 3 ft | 3 kts | 139° |
| 2026-05-05 16:10 | 52.30978 | 4.76929 | 3 ft | 0 kts | 139° |